
<gpx xmlns="http://www.topografix.com/GPX/1/1" xmlns:gpxx="http://www.garmin.com/xmlschemas/GpxExtensions/v3" xmlns:xsi="http://www.w3.org/2001/XMLSchema-instance" version="1.1" creator="Adze - http://kobotsw.com/apps/adze" xsi:schemaLocation="http://www.topografix.com/GPX/1/1 http://www.topografix.com/GPX/1/1/gpx.xsd http://www.garmin.com/xmlschemas/GpxExtensions/v3 http://www.garmin.com/xmlschemas/GpxExtensionsv3.xsd">
    <metadata>
        <name>Untitled Document</name>
        <link href="http://www.garmin.com"></link>
        <time>2018-01-29T03:55:12.048Z</time>
    </metadata>
    <wpt lon="101.117087" lat="15.263151">
        <ele>99.000000</ele>
        <time>2017-06-24T09:47:28Z</time>
        <name>PasakHillsideResort</name>
        <sym>Lodging</sym>
        <extensions>
            <gpxx:WaypointExtension xmlns:gpxx="http://www.garmin.com/xmlschemas/GpxExtensions/v3">
                <gpxx:DisplayMode>SymbolAndName</gpxx:DisplayMode>
            </gpxx:WaypointExtension>
        </extensions>
    </wpt>
    <wpt lon="101.056932" lat="15.251480">
        <ele>84.000000</ele>
        <time>2017-06-25T04:18:43Z</time>
        <name>SunWater</name>
        <sym>Drinking Water</sym>
        <extensions>
            <gpxx:WaypointExtension xmlns:gpxx="http://www.garmin.com/xmlschemas/GpxExtensions/v3">
                <gpxx:DisplayMode>SymbolOnly</gpxx:DisplayMode>
            </gpxx:WaypointExtension>
        </extensions>
    </wpt>
    <trk>
        <name>Sunday</name>
        <extensions>
            <gpxx:TrackExtension xmlns:gpxx="http://www.garmin.com/xmlschemas/GpxExtensions/v3">
                <gpxx:DisplayColor>Green</gpxx:DisplayColor>
            </gpxx:TrackExtension>
        </extensions>
        <trkseg>
            <trkpt lon="101.117314" lat="15.262591">
                <ele>111.650000</ele>
                <time>2017-06-25T03:02:12Z</time>
            </trkpt>
            <trkpt lon="101.117282" lat="15.262614">
                <ele>113.090000</ele>
                <time>2017-06-25T03:02:19Z</time>
            </trkpt>
            <trkpt lon="101.117230" lat="15.262610">
                <ele>113.090000</ele>
                <time>2017-06-25T03:02:23Z</time>
            </trkpt>
            <trkpt lon="101.116965" lat="15.262659">
                <ele>114.050000</ele>
                <time>2017-06-25T03:02:35Z</time>
            </trkpt>
            <trkpt lon="101.116722" lat="15.262380">
                <ele>115.980000</ele>
                <time>2017-06-25T03:02:46Z</time>
            </trkpt>
            <trkpt lon="101.116745" lat="15.262049">
                <ele>113.090000</ele>
                <time>2017-06-25T03:02:56Z</time>
            </trkpt>
            <trkpt lon="101.117059" lat="15.261293">
                <ele>106.840000</ele>
                <time>2017-06-25T03:03:12Z</time>
            </trkpt>
            <trkpt lon="101.117183" lat="15.260668">
                <ele>104.920000</ele>
                <time>2017-06-25T03:03:25Z</time>
            </trkpt>
            <trkpt lon="101.117186" lat="15.260629">
                <ele>104.920000</ele>
                <time>2017-06-25T03:03:26Z</time>
            </trkpt>
            <trkpt lon="101.117248" lat="15.260278">
                <ele>103.480000</ele>
                <time>2017-06-25T03:03:34Z</time>
            </trkpt>
            <trkpt lon="101.117284" lat="15.260168">
                <ele>102.520000</ele>
                <time>2017-06-25T03:03:36Z</time>
            </trkpt>
            <trkpt lon="101.117610" lat="15.259963">
                <ele>99.630000</ele>
                <time>2017-06-25T03:03:42Z</time>
            </trkpt>
            <trkpt lon="101.118798" lat="15.260082">
                <ele>97.230000</ele>
                <time>2017-06-25T03:03:59Z</time>
            </trkpt>
            <trkpt lon="101.118859" lat="15.260098">
                <ele>97.230000</ele>
                <time>2017-06-25T03:04:00Z</time>
            </trkpt>
            <trkpt lon="101.118919" lat="15.260121">
                <ele>97.230000</ele>
                <time>2017-06-25T03:04:01Z</time>
            </trkpt>
            <trkpt lon="101.119636" lat="15.260344">
                <ele>101.560000</ele>
                <time>2017-06-25T03:04:14Z</time>
            </trkpt>
            <trkpt lon="101.120273" lat="15.260397">
                <ele>103.960000</ele>
                <time>2017-06-25T03:04:28Z</time>
            </trkpt>
            <trkpt lon="101.120756" lat="15.260455">
                <ele>105.880000</ele>
                <time>2017-06-25T03:04:43Z</time>
            </trkpt>
            <trkpt lon="101.121456" lat="15.260526">
                <ele>108.770000</ele>
                <time>2017-06-25T03:05:05Z</time>
            </trkpt>
            <trkpt lon="101.122125" lat="15.260578">
                <ele>111.650000</ele>
                <time>2017-06-25T03:05:25Z</time>
            </trkpt>
            <trkpt lon="101.122671" lat="15.260619">
                <ele>114.050000</ele>
                <time>2017-06-25T03:05:41Z</time>
            </trkpt>
            <trkpt lon="101.123112" lat="15.260647">
                <ele>116.460000</ele>
                <time>2017-06-25T03:05:57Z</time>
            </trkpt>
            <trkpt lon="101.123447" lat="15.260669">
                <ele>119.820000</ele>
                <time>2017-06-25T03:06:11Z</time>
            </trkpt>
            <trkpt lon="101.123850" lat="15.260684">
                <ele>122.710000</ele>
                <time>2017-06-25T03:06:28Z</time>
            </trkpt>
            <trkpt lon="101.124254" lat="15.260731">
                <ele>127.510000</ele>
                <time>2017-06-25T03:06:44Z</time>
            </trkpt>
            <trkpt lon="101.124754" lat="15.260718">
                <ele>131.360000</ele>
                <time>2017-06-25T03:07:01Z</time>
            </trkpt>
            <trkpt lon="101.124782" lat="15.260701">
                <ele>131.360000</ele>
                <time>2017-06-25T03:07:02Z</time>
            </trkpt>
            <trkpt lon="101.124909" lat="15.260310">
                <ele>128.470000</ele>
                <time>2017-06-25T03:07:16Z</time>
            </trkpt>
            <trkpt lon="101.124966" lat="15.259642">
                <ele>126.550000</ele>
                <time>2017-06-25T03:07:34Z</time>
            </trkpt>
            <trkpt lon="101.124995" lat="15.259143">
                <ele>125.110000</ele>
                <time>2017-06-25T03:07:45Z</time>
            </trkpt>
            <trkpt lon="101.125001" lat="15.259097">
                <ele>124.630000</ele>
                <time>2017-06-25T03:07:46Z</time>
            </trkpt>
            <trkpt lon="101.125004" lat="15.259048">
                <ele>124.630000</ele>
                <time>2017-06-25T03:07:47Z</time>
            </trkpt>
            <trkpt lon="101.125062" lat="15.258028">
                <ele>120.300000</ele>
                <time>2017-06-25T03:08:05Z</time>
            </trkpt>
            <trkpt lon="101.125141" lat="15.256676">
                <ele>114.530000</ele>
                <time>2017-06-25T03:08:22Z</time>
            </trkpt>
            <trkpt lon="101.125202" lat="15.255344">
                <ele>111.650000</ele>
                <time>2017-06-25T03:08:39Z</time>
            </trkpt>
            <trkpt lon="101.125274" lat="15.254354">
                <ele>110.690000</ele>
                <time>2017-06-25T03:08:54Z</time>
            </trkpt>
            <trkpt lon="101.125338" lat="15.253271">
                <ele>110.210000</ele>
                <time>2017-06-25T03:09:13Z</time>
            </trkpt>
            <trkpt lon="101.125401" lat="15.252222">
                <ele>110.210000</ele>
                <time>2017-06-25T03:09:31Z</time>
            </trkpt>
            <trkpt lon="101.125425" lat="15.251323">
                <ele>110.210000</ele>
                <time>2017-06-25T03:09:48Z</time>
            </trkpt>
            <trkpt lon="101.125290" lat="15.251267">
                <ele>108.770000</ele>
                <time>2017-06-25T03:09:52Z</time>
            </trkpt>
            <trkpt lon="101.124295" lat="15.251212">
                <ele>104.920000</ele>
                <time>2017-06-25T03:10:07Z</time>
            </trkpt>
            <trkpt lon="101.122857" lat="15.251129">
                <ele>103.960000</ele>
                <time>2017-06-25T03:10:28Z</time>
            </trkpt>
            <trkpt lon="101.121613" lat="15.251059">
                <ele>103.000000</ele>
                <time>2017-06-25T03:10:47Z</time>
            </trkpt>
            <trkpt lon="101.120220" lat="15.250974">
                <ele>97.230000</ele>
                <time>2017-06-25T03:11:05Z</time>
            </trkpt>
            <trkpt lon="101.118603" lat="15.250885">
                <ele>89.060000</ele>
                <time>2017-06-25T03:11:22Z</time>
            </trkpt>
            <trkpt lon="101.117374" lat="15.250820">
                <ele>87.620000</ele>
                <time>2017-06-25T03:11:38Z</time>
            </trkpt>
            <trkpt lon="101.116221" lat="15.250745">
                <ele>85.210000</ele>
                <time>2017-06-25T03:11:54Z</time>
            </trkpt>
            <trkpt lon="101.115371" lat="15.250683">
                <ele>85.690000</ele>
                <time>2017-06-25T03:12:08Z</time>
            </trkpt>
            <trkpt lon="101.114964" lat="15.250663">
                <ele>86.180000</ele>
                <time>2017-06-25T03:12:15Z</time>
            </trkpt>
            <trkpt lon="101.114906" lat="15.250663">
                <ele>86.180000</ele>
                <time>2017-06-25T03:12:16Z</time>
            </trkpt>
            <trkpt lon="101.114847" lat="15.250658">
                <ele>85.690000</ele>
                <time>2017-06-25T03:12:17Z</time>
            </trkpt>
            <trkpt lon="101.113852" lat="15.250602">
                <ele>86.660000</ele>
                <time>2017-06-25T03:12:34Z</time>
            </trkpt>
            <trkpt lon="101.112818" lat="15.250536">
                <ele>87.620000</ele>
                <time>2017-06-25T03:12:53Z</time>
            </trkpt>
            <trkpt lon="101.112222" lat="15.250499">
                <ele>88.100000</ele>
                <time>2017-06-25T03:13:05Z</time>
            </trkpt>
            <trkpt lon="101.111206" lat="15.250443">
                <ele>87.620000</ele>
                <time>2017-06-25T03:13:24Z</time>
            </trkpt>
            <trkpt lon="101.110161" lat="15.250385">
                <ele>87.620000</ele>
                <time>2017-06-25T03:13:43Z</time>
            </trkpt>
            <trkpt lon="101.109167" lat="15.250327">
                <ele>88.100000</ele>
                <time>2017-06-25T03:14:04Z</time>
            </trkpt>
            <trkpt lon="101.108463" lat="15.250272">
                <ele>86.660000</ele>
                <time>2017-06-25T03:14:18Z</time>
            </trkpt>
            <trkpt lon="101.108448" lat="15.250184">
                <ele>86.180000</ele>
                <time>2017-06-25T03:14:21Z</time>
            </trkpt>
            <trkpt lon="101.108502" lat="15.249433">
                <ele>84.250000</ele>
                <time>2017-06-25T03:14:39Z</time>
            </trkpt>
            <trkpt lon="101.108538" lat="15.248648">
                <ele>84.250000</ele>
                <time>2017-06-25T03:14:58Z</time>
            </trkpt>
            <trkpt lon="101.108548" lat="15.248415">
                <ele>83.290000</ele>
                <time>2017-06-25T03:15:11Z</time>
            </trkpt>
            <trkpt lon="101.108544" lat="15.248423">
                <ele>83.290000</ele>
                <time>2017-06-25T03:15:21Z</time>
            </trkpt>
            <trkpt lon="101.108540" lat="15.248428">
                <ele>82.810000</ele>
                <time>2017-06-25T03:15:26Z</time>
            </trkpt>
            <trkpt lon="101.108529" lat="15.248857">
                <ele>83.770000</ele>
                <time>2017-06-25T03:15:40Z</time>
            </trkpt>
            <trkpt lon="101.108508" lat="15.249378">
                <ele>83.290000</ele>
                <time>2017-06-25T03:15:56Z</time>
            </trkpt>
            <trkpt lon="101.108475" lat="15.249970">
                <ele>83.770000</ele>
                <time>2017-06-25T03:16:13Z</time>
            </trkpt>
            <trkpt lon="101.108424" lat="15.250250">
                <ele>84.730000</ele>
                <time>2017-06-25T03:16:22Z</time>
            </trkpt>
            <trkpt lon="101.108376" lat="15.250284">
                <ele>85.210000</ele>
                <time>2017-06-25T03:16:24Z</time>
            </trkpt>
            <trkpt lon="101.108322" lat="15.250287">
                <ele>85.210000</ele>
                <time>2017-06-25T03:16:26Z</time>
            </trkpt>
            <trkpt lon="101.107783" lat="15.250253">
                <ele>83.290000</ele>
                <time>2017-06-25T03:16:37Z</time>
            </trkpt>
            <trkpt lon="101.106905" lat="15.250212">
                <ele>79.450000</ele>
                <time>2017-06-25T03:16:51Z</time>
            </trkpt>
            <trkpt lon="101.105724" lat="15.250146">
                <ele>76.080000</ele>
                <time>2017-06-25T03:17:08Z</time>
            </trkpt>
            <trkpt lon="101.104495" lat="15.250068">
                <ele>74.640000</ele>
                <time>2017-06-25T03:17:26Z</time>
            </trkpt>
            <trkpt lon="101.103306" lat="15.249983">
                <ele>72.720000</ele>
                <time>2017-06-25T03:17:44Z</time>
            </trkpt>
            <trkpt lon="101.102884" lat="15.249961">
                <ele>71.760000</ele>
                <time>2017-06-25T03:17:50Z</time>
            </trkpt>
            <trkpt lon="101.102817" lat="15.249976">
                <ele>71.760000</ele>
                <time>2017-06-25T03:17:51Z</time>
            </trkpt>
            <trkpt lon="101.102753" lat="15.250020">
                <ele>71.760000</ele>
                <time>2017-06-25T03:17:52Z</time>
            </trkpt>
            <trkpt lon="101.102718" lat="15.250088">
                <ele>71.760000</ele>
                <time>2017-06-25T03:17:54Z</time>
            </trkpt>
            <trkpt lon="101.102705" lat="15.250166">
                <ele>71.760000</ele>
                <time>2017-06-25T03:17:55Z</time>
            </trkpt>
            <trkpt lon="101.102702" lat="15.250222">
                <ele>71.760000</ele>
                <time>2017-06-25T03:17:56Z</time>
            </trkpt>
            <trkpt lon="101.102700" lat="15.250275">
                <ele>71.270000</ele>
                <time>2017-06-25T03:17:57Z</time>
            </trkpt>
            <trkpt lon="101.102695" lat="15.250328">
                <ele>71.760000</ele>
                <time>2017-06-25T03:17:58Z</time>
            </trkpt>
            <trkpt lon="101.102642" lat="15.251058">
                <ele>73.680000</ele>
                <time>2017-06-25T03:18:13Z</time>
            </trkpt>
            <trkpt lon="101.102619" lat="15.251678">
                <ele>75.600000</ele>
                <time>2017-06-25T03:18:30Z</time>
            </trkpt>
            <trkpt lon="101.102583" lat="15.252291">
                <ele>78.000000</ele>
                <time>2017-06-25T03:18:49Z</time>
            </trkpt>
            <trkpt lon="101.102570" lat="15.252767">
                <ele>79.450000</ele>
                <time>2017-06-25T03:19:04Z</time>
            </trkpt>
            <trkpt lon="101.102530" lat="15.253323">
                <ele>82.810000</ele>
                <time>2017-06-25T03:19:21Z</time>
            </trkpt>
            <trkpt lon="101.102505" lat="15.253902">
                <ele>85.210000</ele>
                <time>2017-06-25T03:19:39Z</time>
            </trkpt>
            <trkpt lon="101.102292" lat="15.254390">
                <ele>87.140000</ele>
                <time>2017-06-25T03:19:57Z</time>
            </trkpt>
            <trkpt lon="101.102165" lat="15.254410">
                <ele>86.660000</ele>
                <time>2017-06-25T03:20:00Z</time>
            </trkpt>
            <trkpt lon="101.101267" lat="15.254383">
                <ele>83.770000</ele>
                <time>2017-06-25T03:20:19Z</time>
            </trkpt>
            <trkpt lon="101.100357" lat="15.254337">
                <ele>79.930000</ele>
                <time>2017-06-25T03:20:33Z</time>
            </trkpt>
            <trkpt lon="101.099495" lat="15.254298">
                <ele>80.890000</ele>
                <time>2017-06-25T03:20:48Z</time>
            </trkpt>
            <trkpt lon="101.098980" lat="15.254266">
                <ele>83.290000</ele>
                <time>2017-06-25T03:21:04Z</time>
            </trkpt>
            <trkpt lon="101.098263" lat="15.254227">
                <ele>83.770000</ele>
                <time>2017-06-25T03:21:22Z</time>
            </trkpt>
            <trkpt lon="101.097283" lat="15.254182">
                <ele>79.930000</ele>
                <time>2017-06-25T03:21:38Z</time>
            </trkpt>
            <trkpt lon="101.096323" lat="15.254125">
                <ele>79.930000</ele>
                <time>2017-06-25T03:21:55Z</time>
            </trkpt>
            <trkpt lon="101.095652" lat="15.254155">
                <ele>79.930000</ele>
                <time>2017-06-25T03:22:08Z</time>
            </trkpt>
            <trkpt lon="101.095597" lat="15.254188">
                <ele>79.930000</ele>
                <time>2017-06-25T03:22:09Z</time>
            </trkpt>
            <trkpt lon="101.095574" lat="15.254209">
                <ele>79.930000</ele>
                <time>2017-06-25T03:22:10Z</time>
            </trkpt>
            <trkpt lon="101.095541" lat="15.254275">
                <ele>79.930000</ele>
                <time>2017-06-25T03:22:12Z</time>
            </trkpt>
            <trkpt lon="101.095546" lat="15.254330">
                <ele>79.930000</ele>
                <time>2017-06-25T03:22:13Z</time>
            </trkpt>
            <trkpt lon="101.095552" lat="15.254373">
                <ele>79.930000</ele>
                <time>2017-06-25T03:22:14Z</time>
            </trkpt>
            <trkpt lon="101.095560" lat="15.254416">
                <ele>79.930000</ele>
                <time>2017-06-25T03:22:15Z</time>
            </trkpt>
            <trkpt lon="101.095683" lat="15.254860">
                <ele>82.810000</ele>
                <time>2017-06-25T03:22:29Z</time>
            </trkpt>
            <trkpt lon="101.095771" lat="15.255301">
                <ele>80.410000</ele>
                <time>2017-06-25T03:22:42Z</time>
            </trkpt>
            <trkpt lon="101.095760" lat="15.255343">
                <ele>79.930000</ele>
                <time>2017-06-25T03:22:43Z</time>
            </trkpt>
            <trkpt lon="101.095739" lat="15.255389">
                <ele>79.450000</ele>
                <time>2017-06-25T03:22:44Z</time>
            </trkpt>
            <trkpt lon="101.095712" lat="15.255434">
                <ele>79.450000</ele>
                <time>2017-06-25T03:22:45Z</time>
            </trkpt>
            <trkpt lon="101.095685" lat="15.255482">
                <ele>78.970000</ele>
                <time>2017-06-25T03:22:46Z</time>
            </trkpt>
            <trkpt lon="101.095662" lat="15.255532">
                <ele>78.480000</ele>
                <time>2017-06-25T03:22:47Z</time>
            </trkpt>
            <trkpt lon="101.095647" lat="15.255582">
                <ele>78.480000</ele>
                <time>2017-06-25T03:22:48Z</time>
            </trkpt>
            <trkpt lon="101.095637" lat="15.255635">
                <ele>78.480000</ele>
                <time>2017-06-25T03:22:49Z</time>
            </trkpt>
            <trkpt lon="101.095631" lat="15.255686">
                <ele>78.480000</ele>
                <time>2017-06-25T03:22:50Z</time>
            </trkpt>
            <trkpt lon="101.095609" lat="15.255935">
                <ele>78.000000</ele>
                <time>2017-06-25T03:22:55Z</time>
            </trkpt>
            <trkpt lon="101.095590" lat="15.255976">
                <ele>77.520000</ele>
                <time>2017-06-25T03:22:56Z</time>
            </trkpt>
            <trkpt lon="101.095397" lat="15.256325">
                <ele>78.480000</ele>
                <time>2017-06-25T03:23:05Z</time>
            </trkpt>
            <trkpt lon="101.095363" lat="15.257135">
                <ele>76.560000</ele>
                <time>2017-06-25T03:23:21Z</time>
            </trkpt>
            <trkpt lon="101.095369" lat="15.257296">
                <ele>76.080000</ele>
                <time>2017-06-25T03:23:28Z</time>
            </trkpt>
            <trkpt lon="101.095361" lat="15.257309">
                <ele>74.640000</ele>
                <time>2017-06-25T03:23:48Z</time>
            </trkpt>
            <trkpt lon="101.095374" lat="15.257301">
                <ele>74.640000</ele>
                <time>2017-06-25T03:24:00Z</time>
            </trkpt>
            <trkpt lon="101.095373" lat="15.257013">
                <ele>75.600000</ele>
                <time>2017-06-25T03:24:13Z</time>
            </trkpt>
            <trkpt lon="101.095380" lat="15.256949">
                <ele>76.080000</ele>
                <time>2017-06-25T03:24:24Z</time>
            </trkpt>
            <trkpt lon="101.095379" lat="15.256939">
                <ele>76.560000</ele>
                <time>2017-06-25T03:24:45Z</time>
            </trkpt>
            <trkpt lon="101.095373" lat="15.256936">
                <ele>77.040000</ele>
                <time>2017-06-25T03:25:03Z</time>
            </trkpt>
            <trkpt lon="101.095380" lat="15.256933">
                <ele>76.560000</ele>
                <time>2017-06-25T03:25:31Z</time>
            </trkpt>
            <trkpt lon="101.095381" lat="15.256934">
                <ele>76.560000</ele>
                <time>2017-06-25T03:25:59Z</time>
            </trkpt>
            <trkpt lon="101.095379" lat="15.256935">
                <ele>76.080000</ele>
                <time>2017-06-25T03:26:20Z</time>
            </trkpt>
            <trkpt lon="101.095383" lat="15.256933">
                <ele>75.600000</ele>
                <time>2017-06-25T03:26:46Z</time>
            </trkpt>
            <trkpt lon="101.095362" lat="15.256926">
                <ele>77.040000</ele>
                <time>2017-06-25T03:27:15Z</time>
            </trkpt>
            <trkpt lon="101.095365" lat="15.256757">
                <ele>77.520000</ele>
                <time>2017-06-25T03:27:28Z</time>
            </trkpt>
            <trkpt lon="101.095412" lat="15.256346">
                <ele>79.450000</ele>
                <time>2017-06-25T03:27:43Z</time>
            </trkpt>
            <trkpt lon="101.095429" lat="15.256295">
                <ele>80.410000</ele>
                <time>2017-06-25T03:27:56Z</time>
            </trkpt>
            <trkpt lon="101.095416" lat="15.256285">
                <ele>80.410000</ele>
                <time>2017-06-25T03:28:13Z</time>
            </trkpt>
            <trkpt lon="101.095414" lat="15.256272">
                <ele>80.890000</ele>
                <time>2017-06-25T03:28:17Z</time>
            </trkpt>
            <trkpt lon="101.095413" lat="15.256259">
                <ele>80.890000</ele>
                <time>2017-06-25T03:28:18Z</time>
            </trkpt>
            <trkpt lon="101.095418" lat="15.256242">
                <ele>80.890000</ele>
                <time>2017-06-25T03:28:19Z</time>
            </trkpt>
            <trkpt lon="101.095429" lat="15.256222">
                <ele>81.370000</ele>
                <time>2017-06-25T03:28:20Z</time>
            </trkpt>
            <trkpt lon="101.095445" lat="15.256197">
                <ele>81.370000</ele>
                <time>2017-06-25T03:28:21Z</time>
            </trkpt>
            <trkpt lon="101.095465" lat="15.256173">
                <ele>81.370000</ele>
                <time>2017-06-25T03:28:22Z</time>
            </trkpt>
            <trkpt lon="101.095610" lat="15.255921">
                <ele>80.890000</ele>
                <time>2017-06-25T03:28:29Z</time>
            </trkpt>
            <trkpt lon="101.095621" lat="15.255877">
                <ele>80.890000</ele>
                <time>2017-06-25T03:28:30Z</time>
            </trkpt>
            <trkpt lon="101.095627" lat="15.255835">
                <ele>80.410000</ele>
                <time>2017-06-25T03:28:31Z</time>
            </trkpt>
            <trkpt lon="101.095641" lat="15.255713">
                <ele>80.410000</ele>
                <time>2017-06-25T03:28:34Z</time>
            </trkpt>
            <trkpt lon="101.095648" lat="15.255672">
                <ele>80.410000</ele>
                <time>2017-06-25T03:28:35Z</time>
            </trkpt>
            <trkpt lon="101.095682" lat="15.255501">
                <ele>80.410000</ele>
                <time>2017-06-25T03:28:39Z</time>
            </trkpt>
            <trkpt lon="101.095701" lat="15.255458">
                <ele>79.930000</ele>
                <time>2017-06-25T03:28:40Z</time>
            </trkpt>
            <trkpt lon="101.095778" lat="15.255176">
                <ele>82.330000</ele>
                <time>2017-06-25T03:28:51Z</time>
            </trkpt>
            <trkpt lon="101.095732" lat="15.254913">
                <ele>83.770000</ele>
                <time>2017-06-25T03:29:04Z</time>
            </trkpt>
            <trkpt lon="101.095593" lat="15.254431">
                <ele>82.810000</ele>
                <time>2017-06-25T03:29:18Z</time>
            </trkpt>
            <trkpt lon="101.095543" lat="15.254256">
                <ele>81.850000</ele>
                <time>2017-06-25T03:29:22Z</time>
            </trkpt>
            <trkpt lon="101.095507" lat="15.254220">
                <ele>81.850000</ele>
                <time>2017-06-25T03:29:23Z</time>
            </trkpt>
            <trkpt lon="101.095464" lat="15.254207">
                <ele>81.850000</ele>
                <time>2017-06-25T03:29:25Z</time>
            </trkpt>
            <trkpt lon="101.095441" lat="15.254216">
                <ele>81.370000</ele>
                <time>2017-06-25T03:29:26Z</time>
            </trkpt>
            <trkpt lon="101.095401" lat="15.254236">
                <ele>81.850000</ele>
                <time>2017-06-25T03:29:27Z</time>
            </trkpt>
            <trkpt lon="101.094946" lat="15.254469">
                <ele>82.330000</ele>
                <time>2017-06-25T03:29:42Z</time>
            </trkpt>
            <trkpt lon="101.094804" lat="15.254518">
                <ele>81.850000</ele>
                <time>2017-06-25T03:29:45Z</time>
            </trkpt>
            <trkpt lon="101.094638" lat="15.254544">
                <ele>80.890000</ele>
                <time>2017-06-25T03:29:48Z</time>
            </trkpt>
            <trkpt lon="101.093729" lat="15.254558">
                <ele>74.640000</ele>
                <time>2017-06-25T03:30:00Z</time>
            </trkpt>
            <trkpt lon="101.092239" lat="15.254623">
                <ele>68.390000</ele>
                <time>2017-06-25T03:30:17Z</time>
            </trkpt>
            <trkpt lon="101.091064" lat="15.254787">
                <ele>66.950000</ele>
                <time>2017-06-25T03:30:34Z</time>
            </trkpt>
            <trkpt lon="101.090129" lat="15.254934">
                <ele>66.950000</ele>
                <time>2017-06-25T03:30:51Z</time>
            </trkpt>
            <trkpt lon="101.089234" lat="15.255069">
                <ele>66.470000</ele>
                <time>2017-06-25T03:31:08Z</time>
            </trkpt>
            <trkpt lon="101.088382" lat="15.255211">
                <ele>66.470000</ele>
                <time>2017-06-25T03:31:26Z</time>
            </trkpt>
            <trkpt lon="101.087915" lat="15.255279">
                <ele>66.470000</ele>
                <time>2017-06-25T03:31:36Z</time>
            </trkpt>
            <trkpt lon="101.087762" lat="15.255287">
                <ele>66.470000</ele>
                <time>2017-06-25T03:31:39Z</time>
            </trkpt>
            <trkpt lon="101.086754" lat="15.255442">
                <ele>66.470000</ele>
                <time>2017-06-25T03:31:59Z</time>
            </trkpt>
            <trkpt lon="101.085880" lat="15.255707">
                <ele>67.430000</ele>
                <time>2017-06-25T03:32:17Z</time>
            </trkpt>
            <trkpt lon="101.085128" lat="15.256065">
                <ele>67.910000</ele>
                <time>2017-06-25T03:32:34Z</time>
            </trkpt>
            <trkpt lon="101.084152" lat="15.256586">
                <ele>67.910000</ele>
                <time>2017-06-25T03:32:56Z</time>
            </trkpt>
            <trkpt lon="101.083317" lat="15.257032">
                <ele>68.870000</ele>
                <time>2017-06-25T03:33:14Z</time>
            </trkpt>
            <trkpt lon="101.082449" lat="15.257497">
                <ele>69.350000</ele>
                <time>2017-06-25T03:33:33Z</time>
            </trkpt>
            <trkpt lon="101.081830" lat="15.257820">
                <ele>70.790000</ele>
                <time>2017-06-25T03:33:50Z</time>
            </trkpt>
            <trkpt lon="101.081330" lat="15.258089">
                <ele>72.720000</ele>
                <time>2017-06-25T03:34:07Z</time>
            </trkpt>
            <trkpt lon="101.080952" lat="15.258284">
                <ele>75.120000</ele>
                <time>2017-06-25T03:34:22Z</time>
            </trkpt>
            <trkpt lon="101.080627" lat="15.258444">
                <ele>76.560000</ele>
                <time>2017-06-25T03:34:39Z</time>
            </trkpt>
            <trkpt lon="101.080254" lat="15.258599">
                <ele>76.560000</ele>
                <time>2017-06-25T03:34:50Z</time>
            </trkpt>
            <trkpt lon="101.079448" lat="15.258891">
                <ele>77.040000</ele>
                <time>2017-06-25T03:35:08Z</time>
            </trkpt>
            <trkpt lon="101.078560" lat="15.259191">
                <ele>77.520000</ele>
                <time>2017-06-25T03:35:29Z</time>
            </trkpt>
            <trkpt lon="101.077883" lat="15.259421">
                <ele>79.450000</ele>
                <time>2017-06-25T03:35:47Z</time>
            </trkpt>
            <trkpt lon="101.077437" lat="15.259500">
                <ele>78.480000</ele>
                <time>2017-06-25T03:36:03Z</time>
            </trkpt>
            <trkpt lon="101.077332" lat="15.259341">
                <ele>76.560000</ele>
                <time>2017-06-25T03:36:08Z</time>
            </trkpt>
            <trkpt lon="101.077204" lat="15.258903">
                <ele>77.520000</ele>
                <time>2017-06-25T03:36:21Z</time>
            </trkpt>
            <trkpt lon="101.077293" lat="15.258550">
                <ele>78.000000</ele>
                <time>2017-06-25T03:36:34Z</time>
            </trkpt>
            <trkpt lon="101.077377" lat="15.258217">
                <ele>76.560000</ele>
                <time>2017-06-25T03:36:46Z</time>
            </trkpt>
            <trkpt lon="101.077378" lat="15.258137">
                <ele>76.080000</ele>
                <time>2017-06-25T03:36:49Z</time>
            </trkpt>
            <trkpt lon="101.077376" lat="15.258114">
                <ele>75.600000</ele>
                <time>2017-06-25T03:37:02Z</time>
            </trkpt>
            <trkpt lon="101.077386" lat="15.258141">
                <ele>76.080000</ele>
                <time>2017-06-25T03:37:16Z</time>
            </trkpt>
            <trkpt lon="101.077389" lat="15.258166">
                <ele>76.080000</ele>
                <time>2017-06-25T03:37:21Z</time>
            </trkpt>
            <trkpt lon="101.077386" lat="15.258220">
                <ele>76.560000</ele>
                <time>2017-06-25T03:37:25Z</time>
            </trkpt>
            <trkpt lon="101.077291" lat="15.258509">
                <ele>77.520000</ele>
                <time>2017-06-25T03:37:40Z</time>
            </trkpt>
            <trkpt lon="101.077176" lat="15.258891">
                <ele>77.520000</ele>
                <time>2017-06-25T03:37:56Z</time>
            </trkpt>
            <trkpt lon="101.077206" lat="15.259093">
                <ele>75.600000</ele>
                <time>2017-06-25T03:38:02Z</time>
            </trkpt>
            <trkpt lon="101.077234" lat="15.259185">
                <ele>75.120000</ele>
                <time>2017-06-25T03:38:04Z</time>
            </trkpt>
            <trkpt lon="101.077384" lat="15.259482">
                <ele>75.600000</ele>
                <time>2017-06-25T03:38:14Z</time>
            </trkpt>
            <trkpt lon="101.077368" lat="15.259515">
                <ele>76.080000</ele>
                <time>2017-06-25T03:38:16Z</time>
            </trkpt>
            <trkpt lon="101.077335" lat="15.259529">
                <ele>75.600000</ele>
                <time>2017-06-25T03:38:17Z</time>
            </trkpt>
            <trkpt lon="101.077313" lat="15.259534">
                <ele>75.600000</ele>
                <time>2017-06-25T03:38:18Z</time>
            </trkpt>
            <trkpt lon="101.077278" lat="15.259538">
                <ele>75.600000</ele>
                <time>2017-06-25T03:38:19Z</time>
            </trkpt>
            <trkpt lon="101.077239" lat="15.259539">
                <ele>75.600000</ele>
                <time>2017-06-25T03:38:20Z</time>
            </trkpt>
            <trkpt lon="101.076585" lat="15.259638">
                <ele>72.720000</ele>
                <time>2017-06-25T03:38:33Z</time>
            </trkpt>
            <trkpt lon="101.075744" lat="15.259789">
                <ele>73.680000</ele>
                <time>2017-06-25T03:38:51Z</time>
            </trkpt>
            <trkpt lon="101.075483" lat="15.259916">
                <ele>73.680000</ele>
                <time>2017-06-25T03:39:01Z</time>
            </trkpt>
            <trkpt lon="101.075269" lat="15.260308">
                <ele>74.160000</ele>
                <time>2017-06-25T03:39:14Z</time>
            </trkpt>
            <trkpt lon="101.075170" lat="15.261095">
                <ele>73.200000</ele>
                <time>2017-06-25T03:39:31Z</time>
            </trkpt>
            <trkpt lon="101.075040" lat="15.261979">
                <ele>73.200000</ele>
                <time>2017-06-25T03:39:49Z</time>
            </trkpt>
            <trkpt lon="101.074952" lat="15.262611">
                <ele>71.760000</ele>
                <time>2017-06-25T03:40:01Z</time>
            </trkpt>
            <trkpt lon="101.074948" lat="15.262664">
                <ele>71.760000</ele>
                <time>2017-06-25T03:40:02Z</time>
            </trkpt>
            <trkpt lon="101.074857" lat="15.263473">
                <ele>72.240000</ele>
                <time>2017-06-25T03:40:19Z</time>
            </trkpt>
            <trkpt lon="101.074773" lat="15.264033">
                <ele>72.720000</ele>
                <time>2017-06-25T03:40:33Z</time>
            </trkpt>
            <trkpt lon="101.074746" lat="15.264213">
                <ele>73.200000</ele>
                <time>2017-06-25T03:40:37Z</time>
            </trkpt>
            <trkpt lon="101.074644" lat="15.264768">
                <ele>74.640000</ele>
                <time>2017-06-25T03:40:49Z</time>
            </trkpt>
            <trkpt lon="101.074579" lat="15.264898">
                <ele>74.640000</ele>
                <time>2017-06-25T03:40:52Z</time>
            </trkpt>
            <trkpt lon="101.074522" lat="15.264979">
                <ele>75.120000</ele>
                <time>2017-06-25T03:40:54Z</time>
            </trkpt>
            <trkpt lon="101.074335" lat="15.265160">
                <ele>75.120000</ele>
                <time>2017-06-25T03:40:59Z</time>
            </trkpt>
            <trkpt lon="101.074291" lat="15.265189">
                <ele>75.120000</ele>
                <time>2017-06-25T03:41:00Z</time>
            </trkpt>
            <trkpt lon="101.074196" lat="15.265237">
                <ele>75.120000</ele>
                <time>2017-06-25T03:41:02Z</time>
            </trkpt>
            <trkpt lon="101.073793" lat="15.265346">
                <ele>75.120000</ele>
                <time>2017-06-25T03:41:14Z</time>
            </trkpt>
            <trkpt lon="101.073780" lat="15.265342">
                <ele>75.120000</ele>
                <time>2017-06-25T03:41:15Z</time>
            </trkpt>
            <trkpt lon="101.073771" lat="15.265335">
                <ele>75.120000</ele>
                <time>2017-06-25T03:41:16Z</time>
            </trkpt>
            <trkpt lon="101.073764" lat="15.265323">
                <ele>74.640000</ele>
                <time>2017-06-25T03:41:17Z</time>
            </trkpt>
            <trkpt lon="101.073761" lat="15.265257">
                <ele>74.640000</ele>
                <time>2017-06-25T03:41:21Z</time>
            </trkpt>
            <trkpt lon="101.073656" lat="15.264910">
                <ele>73.680000</ele>
                <time>2017-06-25T03:41:37Z</time>
            </trkpt>
            <trkpt lon="101.073616" lat="15.264767">
                <ele>73.680000</ele>
                <time>2017-06-25T03:41:47Z</time>
            </trkpt>
            <trkpt lon="101.073602" lat="15.264767">
                <ele>72.720000</ele>
                <time>2017-06-25T03:42:02Z</time>
            </trkpt>
            <trkpt lon="101.073604" lat="15.264785">
                <ele>72.720000</ele>
                <time>2017-06-25T03:42:11Z</time>
            </trkpt>
            <trkpt lon="101.073636" lat="15.264889">
                <ele>73.200000</ele>
                <time>2017-06-25T03:42:17Z</time>
            </trkpt>
            <trkpt lon="101.073740" lat="15.265183">
                <ele>73.680000</ele>
                <time>2017-06-25T03:42:29Z</time>
            </trkpt>
            <trkpt lon="101.073730" lat="15.265332">
                <ele>74.160000</ele>
                <time>2017-06-25T03:42:35Z</time>
            </trkpt>
            <trkpt lon="101.073718" lat="15.265346">
                <ele>74.160000</ele>
                <time>2017-06-25T03:42:36Z</time>
            </trkpt>
            <trkpt lon="101.073700" lat="15.265358">
                <ele>74.160000</ele>
                <time>2017-06-25T03:42:37Z</time>
            </trkpt>
            <trkpt lon="101.073675" lat="15.265366">
                <ele>74.160000</ele>
                <time>2017-06-25T03:42:38Z</time>
            </trkpt>
            <trkpt lon="101.073649" lat="15.265372">
                <ele>74.160000</ele>
                <time>2017-06-25T03:42:39Z</time>
            </trkpt>
            <trkpt lon="101.073621" lat="15.265376">
                <ele>74.160000</ele>
                <time>2017-06-25T03:42:40Z</time>
            </trkpt>
            <trkpt lon="101.073050" lat="15.265487">
                <ele>74.160000</ele>
                <time>2017-06-25T03:42:56Z</time>
            </trkpt>
            <trkpt lon="101.072519" lat="15.265589">
                <ele>74.160000</ele>
                <time>2017-06-25T03:43:11Z</time>
            </trkpt>
            <trkpt lon="101.071776" lat="15.265705">
                <ele>75.120000</ele>
                <time>2017-06-25T03:43:30Z</time>
            </trkpt>
            <trkpt lon="101.071246" lat="15.265832">
                <ele>75.120000</ele>
                <time>2017-06-25T03:43:46Z</time>
            </trkpt>
            <trkpt lon="101.070938" lat="15.266145">
                <ele>75.600000</ele>
                <time>2017-06-25T03:43:58Z</time>
            </trkpt>
            <trkpt lon="101.070809" lat="15.266794">
                <ele>74.640000</ele>
                <time>2017-06-25T03:44:15Z</time>
            </trkpt>
            <trkpt lon="101.070696" lat="15.267618">
                <ele>75.120000</ele>
                <time>2017-06-25T03:44:34Z</time>
            </trkpt>
            <trkpt lon="101.070586" lat="15.268385">
                <ele>76.080000</ele>
                <time>2017-06-25T03:44:51Z</time>
            </trkpt>
            <trkpt lon="101.070424" lat="15.269304">
                <ele>76.560000</ele>
                <time>2017-06-25T03:45:12Z</time>
            </trkpt>
            <trkpt lon="101.070282" lat="15.269913">
                <ele>77.040000</ele>
                <time>2017-06-25T03:45:27Z</time>
            </trkpt>
            <trkpt lon="101.070163" lat="15.270470">
                <ele>77.520000</ele>
                <time>2017-06-25T03:45:40Z</time>
            </trkpt>
            <trkpt lon="101.070155" lat="15.270512">
                <ele>77.520000</ele>
                <time>2017-06-25T03:45:41Z</time>
            </trkpt>
            <trkpt lon="101.070054" lat="15.270938">
                <ele>77.040000</ele>
                <time>2017-06-25T03:45:52Z</time>
            </trkpt>
            <trkpt lon="101.070046" lat="15.271027">
                <ele>77.040000</ele>
                <time>2017-06-25T03:45:54Z</time>
            </trkpt>
            <trkpt lon="101.070038" lat="15.271073">
                <ele>77.040000</ele>
                <time>2017-06-25T03:45:55Z</time>
            </trkpt>
            <trkpt lon="101.070029" lat="15.271119">
                <ele>77.040000</ele>
                <time>2017-06-25T03:45:56Z</time>
            </trkpt>
            <trkpt lon="101.070003" lat="15.271212">
                <ele>77.040000</ele>
                <time>2017-06-25T03:45:58Z</time>
            </trkpt>
            <trkpt lon="101.069961" lat="15.271352">
                <ele>77.040000</ele>
                <time>2017-06-25T03:46:01Z</time>
            </trkpt>
            <trkpt lon="101.069882" lat="15.271741">
                <ele>77.520000</ele>
                <time>2017-06-25T03:46:10Z</time>
            </trkpt>
            <trkpt lon="101.069874" lat="15.271782">
                <ele>77.520000</ele>
                <time>2017-06-25T03:46:11Z</time>
            </trkpt>
            <trkpt lon="101.069635" lat="15.272290">
                <ele>77.520000</ele>
                <time>2017-06-25T03:46:23Z</time>
            </trkpt>
            <trkpt lon="101.069601" lat="15.272329">
                <ele>77.040000</ele>
                <time>2017-06-25T03:46:24Z</time>
            </trkpt>
            <trkpt lon="101.069563" lat="15.272365">
                <ele>77.040000</ele>
                <time>2017-06-25T03:46:25Z</time>
            </trkpt>
            <trkpt lon="101.069522" lat="15.272400">
                <ele>77.040000</ele>
                <time>2017-06-25T03:46:26Z</time>
            </trkpt>
            <trkpt lon="101.069479" lat="15.272431">
                <ele>77.040000</ele>
                <time>2017-06-25T03:46:27Z</time>
            </trkpt>
            <trkpt lon="101.069435" lat="15.272460">
                <ele>77.040000</ele>
                <time>2017-06-25T03:46:28Z</time>
            </trkpt>
            <trkpt lon="101.069188" lat="15.272625">
                <ele>77.040000</ele>
                <time>2017-06-25T03:46:34Z</time>
            </trkpt>
            <trkpt lon="101.069124" lat="15.272689">
                <ele>76.560000</ele>
                <time>2017-06-25T03:46:36Z</time>
            </trkpt>
            <trkpt lon="101.068970" lat="15.272971">
                <ele>77.040000</ele>
                <time>2017-06-25T03:46:43Z</time>
            </trkpt>
            <trkpt lon="101.068960" lat="15.273011">
                <ele>76.560000</ele>
                <time>2017-06-25T03:46:44Z</time>
            </trkpt>
            <trkpt lon="101.068805" lat="15.273724">
                <ele>76.560000</ele>
                <time>2017-06-25T03:46:59Z</time>
            </trkpt>
            <trkpt lon="101.068643" lat="15.274538">
                <ele>78.480000</ele>
                <time>2017-06-25T03:47:16Z</time>
            </trkpt>
            <trkpt lon="101.068466" lat="15.275389">
                <ele>79.450000</ele>
                <time>2017-06-25T03:47:36Z</time>
            </trkpt>
            <trkpt lon="101.068396" lat="15.275588">
                <ele>80.410000</ele>
                <time>2017-06-25T03:47:41Z</time>
            </trkpt>
            <trkpt lon="101.068198" lat="15.275867">
                <ele>81.850000</ele>
                <time>2017-06-25T03:47:49Z</time>
            </trkpt>
            <trkpt lon="101.068166" lat="15.275895">
                <ele>81.850000</ele>
                <time>2017-06-25T03:47:50Z</time>
            </trkpt>
            <trkpt lon="101.067589" lat="15.276331">
                <ele>83.290000</ele>
                <time>2017-06-25T03:48:09Z</time>
            </trkpt>
            <trkpt lon="101.066926" lat="15.276807">
                <ele>83.290000</ele>
                <time>2017-06-25T03:48:29Z</time>
            </trkpt>
            <trkpt lon="101.066263" lat="15.277261">
                <ele>84.250000</ele>
                <time>2017-06-25T03:48:48Z</time>
            </trkpt>
            <trkpt lon="101.065763" lat="15.277461">
                <ele>86.660000</ele>
                <time>2017-06-25T03:49:04Z</time>
            </trkpt>
            <trkpt lon="101.065718" lat="15.277483">
                <ele>86.660000</ele>
                <time>2017-06-25T03:49:07Z</time>
            </trkpt>
            <trkpt lon="101.065732" lat="15.277511">
                <ele>86.660000</ele>
                <time>2017-06-25T03:49:09Z</time>
            </trkpt>
            <trkpt lon="101.065762" lat="15.277513">
                <ele>86.660000</ele>
                <time>2017-06-25T03:49:10Z</time>
            </trkpt>
            <trkpt lon="101.065778" lat="15.277510">
                <ele>86.660000</ele>
                <time>2017-06-25T03:49:11Z</time>
            </trkpt>
            <trkpt lon="101.065805" lat="15.277503">
                <ele>86.660000</ele>
                <time>2017-06-25T03:49:12Z</time>
            </trkpt>
            <trkpt lon="101.066229" lat="15.277331">
                <ele>86.180000</ele>
                <time>2017-06-25T03:49:26Z</time>
            </trkpt>
            <trkpt lon="101.066244" lat="15.277323">
                <ele>86.180000</ele>
                <time>2017-06-25T03:49:27Z</time>
            </trkpt>
            <trkpt lon="101.066254" lat="15.277312">
                <ele>86.180000</ele>
                <time>2017-06-25T03:49:28Z</time>
            </trkpt>
            <trkpt lon="101.066212" lat="15.277276">
                <ele>85.210000</ele>
                <time>2017-06-25T03:49:32Z</time>
            </trkpt>
            <trkpt lon="101.066185" lat="15.277293">
                <ele>85.210000</ele>
                <time>2017-06-25T03:49:33Z</time>
            </trkpt>
            <trkpt lon="101.066169" lat="15.277305">
                <ele>85.210000</ele>
                <time>2017-06-25T03:49:34Z</time>
            </trkpt>
            <trkpt lon="101.066145" lat="15.277323">
                <ele>85.210000</ele>
                <time>2017-06-25T03:49:35Z</time>
            </trkpt>
            <trkpt lon="101.066121" lat="15.277342">
                <ele>85.210000</ele>
                <time>2017-06-25T03:49:36Z</time>
            </trkpt>
            <trkpt lon="101.066095" lat="15.277359">
                <ele>85.210000</ele>
                <time>2017-06-25T03:49:37Z</time>
            </trkpt>
            <trkpt lon="101.066068" lat="15.277377">
                <ele>85.210000</ele>
                <time>2017-06-25T03:49:38Z</time>
            </trkpt>
            <trkpt lon="101.066042" lat="15.277394">
                <ele>85.690000</ele>
                <time>2017-06-25T03:49:39Z</time>
            </trkpt>
            <trkpt lon="101.066017" lat="15.277411">
                <ele>85.690000</ele>
                <time>2017-06-25T03:49:40Z</time>
            </trkpt>
            <trkpt lon="101.065990" lat="15.277424">
                <ele>85.690000</ele>
                <time>2017-06-25T03:49:41Z</time>
            </trkpt>
            <trkpt lon="101.065961" lat="15.277432">
                <ele>85.690000</ele>
                <time>2017-06-25T03:49:42Z</time>
            </trkpt>
            <trkpt lon="101.065429" lat="15.277514">
                <ele>87.620000</ele>
                <time>2017-06-25T03:49:59Z</time>
            </trkpt>
            <trkpt lon="101.065197" lat="15.277564">
                <ele>87.620000</ele>
                <time>2017-06-25T03:50:07Z</time>
            </trkpt>
            <trkpt lon="101.065167" lat="15.277595">
                <ele>87.620000</ele>
                <time>2017-06-25T03:50:08Z</time>
            </trkpt>
            <trkpt lon="101.065152" lat="15.277619">
                <ele>87.620000</ele>
                <time>2017-06-25T03:50:09Z</time>
            </trkpt>
            <trkpt lon="101.065136" lat="15.277663">
                <ele>87.620000</ele>
                <time>2017-06-25T03:50:10Z</time>
            </trkpt>
            <trkpt lon="101.065130" lat="15.277682">
                <ele>87.620000</ele>
                <time>2017-06-25T03:50:11Z</time>
            </trkpt>
            <trkpt lon="101.065033" lat="15.278152">
                <ele>87.140000</ele>
                <time>2017-06-25T03:50:26Z</time>
            </trkpt>
            <trkpt lon="101.064985" lat="15.278433">
                <ele>86.660000</ele>
                <time>2017-06-25T03:50:39Z</time>
            </trkpt>
            <trkpt lon="101.064980" lat="15.278447">
                <ele>88.580000</ele>
                <time>2017-06-25T03:50:59Z</time>
            </trkpt>
            <trkpt lon="101.064974" lat="15.278456">
                <ele>91.940000</ele>
                <time>2017-06-25T03:51:28Z</time>
            </trkpt>
            <trkpt lon="101.064988" lat="15.278470">
                <ele>91.460000</ele>
                <time>2017-06-25T03:52:00Z</time>
            </trkpt>
            <trkpt lon="101.064972" lat="15.278461">
                <ele>92.420000</ele>
                <time>2017-06-25T03:52:30Z</time>
            </trkpt>
            <trkpt lon="101.064955" lat="15.278474">
                <ele>90.980000</ele>
                <time>2017-06-25T03:52:59Z</time>
            </trkpt>
            <trkpt lon="101.064997" lat="15.278452">
                <ele>89.540000</ele>
                <time>2017-06-25T03:53:21Z</time>
            </trkpt>
            <trkpt lon="101.065028" lat="15.278393">
                <ele>89.060000</ele>
                <time>2017-06-25T03:53:34Z</time>
            </trkpt>
            <trkpt lon="101.065032" lat="15.278379">
                <ele>89.060000</ele>
                <time>2017-06-25T03:53:35Z</time>
            </trkpt>
            <trkpt lon="101.065033" lat="15.278362">
                <ele>89.060000</ele>
                <time>2017-06-25T03:53:36Z</time>
            </trkpt>
            <trkpt lon="101.065031" lat="15.278347">
                <ele>89.540000</ele>
                <time>2017-06-25T03:53:37Z</time>
            </trkpt>
            <trkpt lon="101.065013" lat="15.278258">
                <ele>90.020000</ele>
                <time>2017-06-25T03:53:49Z</time>
            </trkpt>
            <trkpt lon="101.065031" lat="15.278158">
                <ele>88.580000</ele>
                <time>2017-06-25T03:54:01Z</time>
            </trkpt>
            <trkpt lon="101.065044" lat="15.278083">
                <ele>88.580000</ele>
                <time>2017-06-25T03:54:04Z</time>
            </trkpt>
            <trkpt lon="101.065038" lat="15.278057">
                <ele>88.580000</ele>
                <time>2017-06-25T03:54:05Z</time>
            </trkpt>
            <trkpt lon="101.065039" lat="15.278035">
                <ele>88.100000</ele>
                <time>2017-06-25T03:54:06Z</time>
            </trkpt>
            <trkpt lon="101.065172" lat="15.277603">
                <ele>86.660000</ele>
                <time>2017-06-25T03:54:21Z</time>
            </trkpt>
            <trkpt lon="101.065201" lat="15.277586">
                <ele>86.660000</ele>
                <time>2017-06-25T03:54:22Z</time>
            </trkpt>
            <trkpt lon="101.065475" lat="15.277501">
                <ele>86.660000</ele>
                <time>2017-06-25T03:54:34Z</time>
            </trkpt>
            <trkpt lon="101.065483" lat="15.277513">
                <ele>86.660000</ele>
                <time>2017-06-25T03:54:35Z</time>
            </trkpt>
            <trkpt lon="101.065454" lat="15.277531">
                <ele>86.660000</ele>
                <time>2017-06-25T03:54:37Z</time>
            </trkpt>
            <trkpt lon="101.065425" lat="15.277526">
                <ele>86.660000</ele>
                <time>2017-06-25T03:54:38Z</time>
            </trkpt>
            <trkpt lon="101.065404" lat="15.277526">
                <ele>86.660000</ele>
                <time>2017-06-25T03:54:39Z</time>
            </trkpt>
            <trkpt lon="101.065375" lat="15.277527">
                <ele>86.660000</ele>
                <time>2017-06-25T03:54:40Z</time>
            </trkpt>
            <trkpt lon="101.065221" lat="15.277518">
                <ele>86.660000</ele>
                <time>2017-06-25T03:54:51Z</time>
            </trkpt>
            <trkpt lon="101.065190" lat="15.277499">
                <ele>86.180000</ele>
                <time>2017-06-25T03:55:05Z</time>
            </trkpt>
            <trkpt lon="101.065178" lat="15.277494">
                <ele>86.180000</ele>
                <time>2017-06-25T03:55:06Z</time>
            </trkpt>
            <trkpt lon="101.065169" lat="15.277479">
                <ele>85.690000</ele>
                <time>2017-06-25T03:55:07Z</time>
            </trkpt>
            <trkpt lon="101.065167" lat="15.277455">
                <ele>85.690000</ele>
                <time>2017-06-25T03:55:08Z</time>
            </trkpt>
            <trkpt lon="101.065168" lat="15.277429">
                <ele>85.690000</ele>
                <time>2017-06-25T03:55:09Z</time>
            </trkpt>
            <trkpt lon="101.065171" lat="15.277401">
                <ele>85.690000</ele>
                <time>2017-06-25T03:55:10Z</time>
            </trkpt>
            <trkpt lon="101.065211" lat="15.276898">
                <ele>86.180000</ele>
                <time>2017-06-25T03:55:24Z</time>
            </trkpt>
            <trkpt lon="101.065250" lat="15.276569">
                <ele>85.690000</ele>
                <time>2017-06-25T03:55:32Z</time>
            </trkpt>
            <trkpt lon="101.065261" lat="15.276438">
                <ele>85.210000</ele>
                <time>2017-06-25T03:55:35Z</time>
            </trkpt>
            <trkpt lon="101.065355" lat="15.275739">
                <ele>84.250000</ele>
                <time>2017-06-25T03:55:52Z</time>
            </trkpt>
            <trkpt lon="101.065458" lat="15.275132">
                <ele>85.690000</ele>
                <time>2017-06-25T03:56:08Z</time>
            </trkpt>
            <trkpt lon="101.065599" lat="15.274546">
                <ele>84.730000</ele>
                <time>2017-06-25T03:56:23Z</time>
            </trkpt>
            <trkpt lon="101.065695" lat="15.273728">
                <ele>79.930000</ele>
                <time>2017-06-25T03:56:37Z</time>
            </trkpt>
            <trkpt lon="101.065750" lat="15.273298">
                <ele>78.480000</ele>
                <time>2017-06-25T03:56:44Z</time>
            </trkpt>
            <trkpt lon="101.065988" lat="15.272496">
                <ele>76.560000</ele>
                <time>2017-06-25T03:57:00Z</time>
            </trkpt>
            <trkpt lon="101.065943" lat="15.272366">
                <ele>76.080000</ele>
                <time>2017-06-25T03:57:03Z</time>
            </trkpt>
            <trkpt lon="101.065867" lat="15.272354">
                <ele>75.600000</ele>
                <time>2017-06-25T03:57:04Z</time>
            </trkpt>
            <trkpt lon="101.065805" lat="15.272351">
                <ele>75.600000</ele>
                <time>2017-06-25T03:57:05Z</time>
            </trkpt>
            <trkpt lon="101.065741" lat="15.272352">
                <ele>75.120000</ele>
                <time>2017-06-25T03:57:06Z</time>
            </trkpt>
            <trkpt lon="101.065606" lat="15.272343">
                <ele>75.120000</ele>
                <time>2017-06-25T03:57:08Z</time>
            </trkpt>
            <trkpt lon="101.065539" lat="15.272323">
                <ele>74.640000</ele>
                <time>2017-06-25T03:57:09Z</time>
            </trkpt>
            <trkpt lon="101.065483" lat="15.272293">
                <ele>74.640000</ele>
                <time>2017-06-25T03:57:10Z</time>
            </trkpt>
            <trkpt lon="101.065430" lat="15.272250">
                <ele>74.160000</ele>
                <time>2017-06-25T03:57:11Z</time>
            </trkpt>
            <trkpt lon="101.065385" lat="15.272203">
                <ele>74.160000</ele>
                <time>2017-06-25T03:57:12Z</time>
            </trkpt>
            <trkpt lon="101.065342" lat="15.272150">
                <ele>74.160000</ele>
                <time>2017-06-25T03:57:13Z</time>
            </trkpt>
            <trkpt lon="101.064848" lat="15.271650">
                <ele>73.680000</ele>
                <time>2017-06-25T03:57:25Z</time>
            </trkpt>
            <trkpt lon="101.064210" lat="15.271202">
                <ele>76.560000</ele>
                <time>2017-06-25T03:57:40Z</time>
            </trkpt>
            <trkpt lon="101.063623" lat="15.270722">
                <ele>78.000000</ele>
                <time>2017-06-25T03:57:56Z</time>
            </trkpt>
            <trkpt lon="101.063408" lat="15.270552">
                <ele>77.520000</ele>
                <time>2017-06-25T03:58:02Z</time>
            </trkpt>
            <trkpt lon="101.063315" lat="15.270438">
                <ele>78.000000</ele>
                <time>2017-06-25T03:58:05Z</time>
            </trkpt>
            <trkpt lon="101.062915" lat="15.269900">
                <ele>78.000000</ele>
                <time>2017-06-25T03:58:21Z</time>
            </trkpt>
            <trkpt lon="101.062591" lat="15.269554">
                <ele>78.000000</ele>
                <time>2017-06-25T03:58:35Z</time>
            </trkpt>
            <trkpt lon="101.062023" lat="15.269046">
                <ele>78.970000</ele>
                <time>2017-06-25T03:58:54Z</time>
            </trkpt>
            <trkpt lon="101.061561" lat="15.268639">
                <ele>79.450000</ele>
                <time>2017-06-25T03:59:09Z</time>
            </trkpt>
            <trkpt lon="101.061105" lat="15.268260">
                <ele>81.370000</ele>
                <time>2017-06-25T03:59:25Z</time>
            </trkpt>
            <trkpt lon="101.060479" lat="15.267681">
                <ele>82.810000</ele>
                <time>2017-06-25T03:59:46Z</time>
            </trkpt>
            <trkpt lon="101.060390" lat="15.267598">
                <ele>83.290000</ele>
                <time>2017-06-25T03:59:49Z</time>
            </trkpt>
            <trkpt lon="101.060360" lat="15.267572">
                <ele>83.290000</ele>
                <time>2017-06-25T03:59:50Z</time>
            </trkpt>
            <trkpt lon="101.060089" lat="15.267341">
                <ele>83.770000</ele>
                <time>2017-06-25T03:59:59Z</time>
            </trkpt>
            <trkpt lon="101.059666" lat="15.266948">
                <ele>85.210000</ele>
                <time>2017-06-25T04:00:13Z</time>
            </trkpt>
            <trkpt lon="101.059611" lat="15.266890">
                <ele>85.690000</ele>
                <time>2017-06-25T04:00:15Z</time>
            </trkpt>
            <trkpt lon="101.059077" lat="15.266419">
                <ele>86.660000</ele>
                <time>2017-06-25T04:00:32Z</time>
            </trkpt>
            <trkpt lon="101.058549" lat="15.265943">
                <ele>87.620000</ele>
                <time>2017-06-25T04:00:50Z</time>
            </trkpt>
            <trkpt lon="101.057963" lat="15.265370">
                <ele>86.180000</ele>
                <time>2017-06-25T04:01:08Z</time>
            </trkpt>
            <trkpt lon="101.057521" lat="15.264940">
                <ele>86.660000</ele>
                <time>2017-06-25T04:01:20Z</time>
            </trkpt>
            <trkpt lon="101.057484" lat="15.264910">
                <ele>86.660000</ele>
                <time>2017-06-25T04:01:21Z</time>
            </trkpt>
            <trkpt lon="101.057444" lat="15.264882">
                <ele>86.660000</ele>
                <time>2017-06-25T04:01:22Z</time>
            </trkpt>
            <trkpt lon="101.057402" lat="15.264856">
                <ele>86.660000</ele>
                <time>2017-06-25T04:01:23Z</time>
            </trkpt>
            <trkpt lon="101.057358" lat="15.264833">
                <ele>86.660000</ele>
                <time>2017-06-25T04:01:24Z</time>
            </trkpt>
            <trkpt lon="101.057008" lat="15.264682">
                <ele>86.660000</ele>
                <time>2017-06-25T04:01:32Z</time>
            </trkpt>
            <trkpt lon="101.056503" lat="15.264528">
                <ele>87.620000</ele>
                <time>2017-06-25T04:01:46Z</time>
            </trkpt>
            <trkpt lon="101.055942" lat="15.264308">
                <ele>87.620000</ele>
                <time>2017-06-25T04:02:02Z</time>
            </trkpt>
            <trkpt lon="101.055498" lat="15.264072">
                <ele>87.620000</ele>
                <time>2017-06-25T04:02:16Z</time>
            </trkpt>
            <trkpt lon="101.054892" lat="15.263749">
                <ele>88.100000</ele>
                <time>2017-06-25T04:02:34Z</time>
            </trkpt>
            <trkpt lon="101.054278" lat="15.263399">
                <ele>89.540000</ele>
                <time>2017-06-25T04:02:54Z</time>
            </trkpt>
            <trkpt lon="101.053849" lat="15.263150">
                <ele>90.500000</ele>
                <time>2017-06-25T04:03:11Z</time>
            </trkpt>
            <trkpt lon="101.053509" lat="15.262928">
                <ele>91.940000</ele>
                <time>2017-06-25T04:03:28Z</time>
            </trkpt>
            <trkpt lon="101.053236" lat="15.262788">
                <ele>92.420000</ele>
                <time>2017-06-25T04:03:46Z</time>
            </trkpt>
            <trkpt lon="101.052978" lat="15.262595">
                <ele>92.900000</ele>
                <time>2017-06-25T04:03:59Z</time>
            </trkpt>
            <trkpt lon="101.052423" lat="15.262258">
                <ele>92.900000</ele>
                <time>2017-06-25T04:04:16Z</time>
            </trkpt>
            <trkpt lon="101.051787" lat="15.261855">
                <ele>94.830000</ele>
                <time>2017-06-25T04:04:34Z</time>
            </trkpt>
            <trkpt lon="101.051394" lat="15.261620">
                <ele>94.830000</ele>
                <time>2017-06-25T04:04:45Z</time>
            </trkpt>
            <trkpt lon="101.051120" lat="15.261474">
                <ele>94.350000</ele>
                <time>2017-06-25T04:04:52Z</time>
            </trkpt>
            <trkpt lon="101.050804" lat="15.261198">
                <ele>94.830000</ele>
                <time>2017-06-25T04:05:04Z</time>
            </trkpt>
            <trkpt lon="101.050991" lat="15.260706">
                <ele>95.790000</ele>
                <time>2017-06-25T04:05:18Z</time>
            </trkpt>
            <trkpt lon="101.051160" lat="15.260263">
                <ele>96.270000</ele>
                <time>2017-06-25T04:05:33Z</time>
            </trkpt>
            <trkpt lon="101.051335" lat="15.259799">
                <ele>96.750000</ele>
                <time>2017-06-25T04:05:51Z</time>
            </trkpt>
            <trkpt lon="101.051441" lat="15.259513">
                <ele>98.190000</ele>
                <time>2017-06-25T04:06:04Z</time>
            </trkpt>
            <trkpt lon="101.051531" lat="15.259284">
                <ele>98.670000</ele>
                <time>2017-06-25T04:06:16Z</time>
            </trkpt>
            <trkpt lon="101.051529" lat="15.259284">
                <ele>97.710000</ele>
                <time>2017-06-25T04:06:39Z</time>
            </trkpt>
            <trkpt lon="101.051525" lat="15.259293">
                <ele>98.670000</ele>
                <time>2017-06-25T04:07:03Z</time>
            </trkpt>
            <trkpt lon="101.051525" lat="15.259279">
                <ele>99.150000</ele>
                <time>2017-06-25T04:07:30Z</time>
            </trkpt>
            <trkpt lon="101.051535" lat="15.259289">
                <ele>97.710000</ele>
                <time>2017-06-25T04:08:01Z</time>
            </trkpt>
            <trkpt lon="101.051535" lat="15.259287">
                <ele>96.270000</ele>
                <time>2017-06-25T04:08:22Z</time>
            </trkpt>
            <trkpt lon="101.051537" lat="15.259284">
                <ele>96.750000</ele>
                <time>2017-06-25T04:08:47Z</time>
            </trkpt>
            <trkpt lon="101.051544" lat="15.259280">
                <ele>97.230000</ele>
                <time>2017-06-25T04:09:13Z</time>
            </trkpt>
            <trkpt lon="101.051539" lat="15.259280">
                <ele>96.750000</ele>
                <time>2017-06-25T04:09:40Z</time>
            </trkpt>
            <trkpt lon="101.051530" lat="15.259280">
                <ele>97.710000</ele>
                <time>2017-06-25T04:10:16Z</time>
            </trkpt>
            <trkpt lon="101.051528" lat="15.259282">
                <ele>97.710000</ele>
                <time>2017-06-25T04:10:33Z</time>
            </trkpt>
            <trkpt lon="101.051518" lat="15.259271">
                <ele>98.670000</ele>
                <time>2017-06-25T04:11:04Z</time>
            </trkpt>
            <trkpt lon="101.051521" lat="15.259277">
                <ele>99.150000</ele>
                <time>2017-06-25T04:11:09Z</time>
            </trkpt>
            <trkpt lon="101.051515" lat="15.259282">
                <ele>101.080000</ele>
                <time>2017-06-25T04:11:21Z</time>
            </trkpt>
            <trkpt lon="101.051518" lat="15.259266">
                <ele>101.560000</ele>
                <time>2017-06-25T04:11:50Z</time>
            </trkpt>
            <trkpt lon="101.051524" lat="15.259269">
                <ele>100.110000</ele>
                <time>2017-06-25T04:12:21Z</time>
            </trkpt>
            <trkpt lon="101.051535" lat="15.259282">
                <ele>100.110000</ele>
                <time>2017-06-25T04:12:24Z</time>
            </trkpt>
            <trkpt lon="101.051535" lat="15.259278">
                <ele>100.110000</ele>
                <time>2017-06-25T04:12:39Z</time>
            </trkpt>
            <trkpt lon="101.051539" lat="15.259278">
                <ele>100.110000</ele>
                <time>2017-06-25T04:12:54Z</time>
            </trkpt>
            <trkpt lon="101.051538" lat="15.259280">
                <ele>99.630000</ele>
                <time>2017-06-25T04:13:12Z</time>
            </trkpt>
            <trkpt lon="101.051546" lat="15.259280">
                <ele>99.150000</ele>
                <time>2017-06-25T04:13:31Z</time>
            </trkpt>
            <trkpt lon="101.051541" lat="15.259275">
                <ele>99.150000</ele>
                <time>2017-06-25T04:13:58Z</time>
            </trkpt>
            <trkpt lon="101.051532" lat="15.259288">
                <ele>96.750000</ele>
                <time>2017-06-25T04:14:27Z</time>
            </trkpt>
            <trkpt lon="101.051526" lat="15.259302">
                <ele>97.710000</ele>
                <time>2017-06-25T04:14:45Z</time>
            </trkpt>
            <trkpt lon="101.051526" lat="15.259302">
                <ele>96.750000</ele>
                <time>2017-06-25T04:15:14Z</time>
            </trkpt>
            <trkpt lon="101.051569" lat="15.259200">
                <ele>96.750000</ele>
                <time>2017-06-25T04:15:41Z</time>
            </trkpt>
            <trkpt lon="101.051642" lat="15.259096">
                <ele>95.790000</ele>
                <time>2017-06-25T04:15:44Z</time>
            </trkpt>
            <trkpt lon="101.052215" lat="15.258349">
                <ele>92.900000</ele>
                <time>2017-06-25T04:16:00Z</time>
            </trkpt>
            <trkpt lon="101.052918" lat="15.257292">
                <ele>90.500000</ele>
                <time>2017-06-25T04:16:18Z</time>
            </trkpt>
            <trkpt lon="101.053393" lat="15.256523">
                <ele>87.620000</ele>
                <time>2017-06-25T04:16:31Z</time>
            </trkpt>
            <trkpt lon="101.053795" lat="15.255873">
                <ele>89.540000</ele>
                <time>2017-06-25T04:16:44Z</time>
            </trkpt>
            <trkpt lon="101.054212" lat="15.255165">
                <ele>89.060000</ele>
                <time>2017-06-25T04:17:00Z</time>
            </trkpt>
            <trkpt lon="101.054821" lat="15.254397">
                <ele>84.730000</ele>
                <time>2017-06-25T04:17:15Z</time>
            </trkpt>
            <trkpt lon="101.055527" lat="15.253510">
                <ele>83.770000</ele>
                <time>2017-06-25T04:17:32Z</time>
            </trkpt>
            <trkpt lon="101.056097" lat="15.252845">
                <ele>83.290000</ele>
                <time>2017-06-25T04:17:49Z</time>
            </trkpt>
            <trkpt lon="101.056801" lat="15.252153">
                <ele>80.410000</ele>
                <time>2017-06-25T04:18:04Z</time>
            </trkpt>
            <trkpt lon="101.057248" lat="15.251764">
                <ele>81.850000</ele>
                <time>2017-06-25T04:18:17Z</time>
            </trkpt>
            <trkpt lon="101.057266" lat="15.251661">
                <ele>81.850000</ele>
                <time>2017-06-25T04:18:21Z</time>
            </trkpt>
            <trkpt lon="101.057244" lat="15.251638">
                <ele>81.850000</ele>
                <time>2017-06-25T04:18:22Z</time>
            </trkpt>
            <trkpt lon="101.057223" lat="15.251624">
                <ele>81.850000</ele>
                <time>2017-06-25T04:18:23Z</time>
            </trkpt>
            <trkpt lon="101.057194" lat="15.251607">
                <ele>81.850000</ele>
                <time>2017-06-25T04:18:24Z</time>
            </trkpt>
            <trkpt lon="101.057166" lat="15.251591">
                <ele>81.850000</ele>
                <time>2017-06-25T04:18:25Z</time>
            </trkpt>
            <trkpt lon="101.056933" lat="15.251468">
                <ele>82.810000</ele>
                <time>2017-06-25T04:18:35Z</time>
            </trkpt>
            <trkpt lon="101.056932" lat="15.251480">
                <ele>83.770000</ele>
                <time>2017-06-25T04:18:43Z</time>
            </trkpt>
            <trkpt lon="101.056978" lat="15.251487">
                <ele>84.730000</ele>
                <time>2017-06-25T04:19:11Z</time>
            </trkpt>
            <trkpt lon="101.056957" lat="15.251486">
                <ele>79.450000</ele>
                <time>2017-06-25T04:19:59Z</time>
            </trkpt>
            <trkpt lon="101.056964" lat="15.251491">
                <ele>80.890000</ele>
                <time>2017-06-25T04:20:35Z</time>
            </trkpt>
            <trkpt lon="101.056972" lat="15.251496">
                <ele>81.370000</ele>
                <time>2017-06-25T04:21:11Z</time>
            </trkpt>
            <trkpt lon="101.056976" lat="15.251497">
                <ele>82.330000</ele>
                <time>2017-06-25T04:21:45Z</time>
            </trkpt>
            <trkpt lon="101.056974" lat="15.251487">
                <ele>83.290000</ele>
                <time>2017-06-25T04:22:27Z</time>
            </trkpt>
            <trkpt lon="101.056963" lat="15.251486">
                <ele>81.850000</ele>
                <time>2017-06-25T04:23:01Z</time>
            </trkpt>
            <trkpt lon="101.056958" lat="15.251474">
                <ele>80.890000</ele>
                <time>2017-06-25T04:23:37Z</time>
            </trkpt>
            <trkpt lon="101.056980" lat="15.251476">
                <ele>83.770000</ele>
                <time>2017-06-25T04:24:15Z</time>
            </trkpt>
            <trkpt lon="101.056987" lat="15.251467">
                <ele>87.140000</ele>
                <time>2017-06-25T04:24:52Z</time>
            </trkpt>
            <trkpt lon="101.056981" lat="15.251468">
                <ele>86.660000</ele>
                <time>2017-06-25T04:25:29Z</time>
            </trkpt>
            <trkpt lon="101.056911" lat="15.251419">
                <ele>84.730000</ele>
                <time>2017-06-25T04:25:55Z</time>
            </trkpt>
            <trkpt lon="101.056881" lat="15.251417">
                <ele>84.730000</ele>
                <time>2017-06-25T04:26:01Z</time>
            </trkpt>
            <trkpt lon="101.056866" lat="15.251411">
                <ele>84.730000</ele>
                <time>2017-06-25T04:26:02Z</time>
            </trkpt>
            <trkpt lon="101.056847" lat="15.251404">
                <ele>84.730000</ele>
                <time>2017-06-25T04:26:03Z</time>
            </trkpt>
            <trkpt lon="101.056827" lat="15.251396">
                <ele>84.730000</ele>
                <time>2017-06-25T04:26:04Z</time>
            </trkpt>
            <trkpt lon="101.056807" lat="15.251388">
                <ele>84.730000</ele>
                <time>2017-06-25T04:26:05Z</time>
            </trkpt>
            <trkpt lon="101.056784" lat="15.251378">
                <ele>84.730000</ele>
                <time>2017-06-25T04:26:06Z</time>
            </trkpt>
            <trkpt lon="101.056764" lat="15.251367">
                <ele>84.730000</ele>
                <time>2017-06-25T04:26:07Z</time>
            </trkpt>
            <trkpt lon="101.056767" lat="15.251204">
                <ele>85.210000</ele>
                <time>2017-06-25T04:26:16Z</time>
            </trkpt>
            <trkpt lon="101.057115" lat="15.250980">
                <ele>83.770000</ele>
                <time>2017-06-25T04:26:32Z</time>
            </trkpt>
            <trkpt lon="101.057891" lat="15.250494">
                <ele>81.370000</ele>
                <time>2017-06-25T04:26:51Z</time>
            </trkpt>
            <trkpt lon="101.058526" lat="15.250090">
                <ele>81.370000</ele>
                <time>2017-06-25T04:27:06Z</time>
            </trkpt>
            <trkpt lon="101.059237" lat="15.249644">
                <ele>82.810000</ele>
                <time>2017-06-25T04:27:24Z</time>
            </trkpt>
            <trkpt lon="101.059863" lat="15.249253">
                <ele>85.210000</ele>
                <time>2017-06-25T04:27:44Z</time>
            </trkpt>
            <trkpt lon="101.060062" lat="15.249067">
                <ele>85.210000</ele>
                <time>2017-06-25T04:27:51Z</time>
            </trkpt>
            <trkpt lon="101.060097" lat="15.249040">
                <ele>85.210000</ele>
                <time>2017-06-25T04:27:52Z</time>
            </trkpt>
            <trkpt lon="101.060132" lat="15.249015">
                <ele>84.730000</ele>
                <time>2017-06-25T04:27:53Z</time>
            </trkpt>
            <trkpt lon="101.060349" lat="15.248876">
                <ele>84.730000</ele>
                <time>2017-06-25T04:27:59Z</time>
            </trkpt>
            <trkpt lon="101.060365" lat="15.248843">
                <ele>84.730000</ele>
                <time>2017-06-25T04:28:00Z</time>
            </trkpt>
            <trkpt lon="101.060369" lat="15.248807">
                <ele>84.730000</ele>
                <time>2017-06-25T04:28:01Z</time>
            </trkpt>
            <trkpt lon="101.060362" lat="15.248774">
                <ele>84.730000</ele>
                <time>2017-06-25T04:28:02Z</time>
            </trkpt>
            <trkpt lon="101.060350" lat="15.248744">
                <ele>84.730000</ele>
                <time>2017-06-25T04:28:03Z</time>
            </trkpt>
            <trkpt lon="101.060348" lat="15.248346">
                <ele>85.690000</ele>
                <time>2017-06-25T04:28:15Z</time>
            </trkpt>
            <trkpt lon="101.060175" lat="15.247688">
                <ele>86.180000</ele>
                <time>2017-06-25T04:28:32Z</time>
            </trkpt>
            <trkpt lon="101.060210" lat="15.247416">
                <ele>86.180000</ele>
                <time>2017-06-25T04:28:39Z</time>
            </trkpt>
            <trkpt lon="101.060229" lat="15.247380">
                <ele>86.180000</ele>
                <time>2017-06-25T04:28:40Z</time>
            </trkpt>
            <trkpt lon="101.060243" lat="15.247344">
                <ele>85.690000</ele>
                <time>2017-06-25T04:28:41Z</time>
            </trkpt>
            <trkpt lon="101.060288" lat="15.247186">
                <ele>84.730000</ele>
                <time>2017-06-25T04:28:45Z</time>
            </trkpt>
            <trkpt lon="101.060289" lat="15.247143">
                <ele>84.730000</ele>
                <time>2017-06-25T04:28:46Z</time>
            </trkpt>
            <trkpt lon="101.060286" lat="15.247098">
                <ele>84.250000</ele>
                <time>2017-06-25T04:28:47Z</time>
            </trkpt>
            <trkpt lon="101.060276" lat="15.247050">
                <ele>84.250000</ele>
                <time>2017-06-25T04:28:48Z</time>
            </trkpt>
            <trkpt lon="101.060262" lat="15.247002">
                <ele>83.770000</ele>
                <time>2017-06-25T04:28:49Z</time>
            </trkpt>
            <trkpt lon="101.060250" lat="15.246950">
                <ele>83.770000</ele>
                <time>2017-06-25T04:28:50Z</time>
            </trkpt>
            <trkpt lon="101.060237" lat="15.246898">
                <ele>83.290000</ele>
                <time>2017-06-25T04:28:51Z</time>
            </trkpt>
            <trkpt lon="101.059955" lat="15.246037">
                <ele>81.850000</ele>
                <time>2017-06-25T04:29:09Z</time>
            </trkpt>
            <trkpt lon="101.059955" lat="15.245989">
                <ele>81.850000</ele>
                <time>2017-06-25T04:29:10Z</time>
            </trkpt>
            <trkpt lon="101.059952" lat="15.245939">
                <ele>81.370000</ele>
                <time>2017-06-25T04:29:11Z</time>
            </trkpt>
            <trkpt lon="101.059941" lat="15.245889">
                <ele>81.370000</ele>
                <time>2017-06-25T04:29:12Z</time>
            </trkpt>
            <trkpt lon="101.059926" lat="15.245843">
                <ele>81.370000</ele>
                <time>2017-06-25T04:29:13Z</time>
            </trkpt>
            <trkpt lon="101.059906" lat="15.245800">
                <ele>81.370000</ele>
                <time>2017-06-25T04:29:14Z</time>
            </trkpt>
            <trkpt lon="101.059887" lat="15.245759">
                <ele>81.370000</ele>
                <time>2017-06-25T04:29:15Z</time>
            </trkpt>
            <trkpt lon="101.059874" lat="15.245720">
                <ele>81.370000</ele>
                <time>2017-06-25T04:29:16Z</time>
            </trkpt>
            <trkpt lon="101.059864" lat="15.245681">
                <ele>81.370000</ele>
                <time>2017-06-25T04:29:17Z</time>
            </trkpt>
            <trkpt lon="101.059834" lat="15.245001">
                <ele>83.290000</ele>
                <time>2017-06-25T04:29:35Z</time>
            </trkpt>
            <trkpt lon="101.059849" lat="15.244538">
                <ele>79.930000</ele>
                <time>2017-06-25T04:29:49Z</time>
            </trkpt>
            <trkpt lon="101.059745" lat="15.243903">
                <ele>77.040000</ele>
                <time>2017-06-25T04:30:02Z</time>
            </trkpt>
            <trkpt lon="101.059653" lat="15.243068">
                <ele>76.080000</ele>
                <time>2017-06-25T04:30:19Z</time>
            </trkpt>
            <trkpt lon="101.059610" lat="15.242770">
                <ele>76.080000</ele>
                <time>2017-06-25T04:30:25Z</time>
            </trkpt>
            <trkpt lon="101.059612" lat="15.242717">
                <ele>76.080000</ele>
                <time>2017-06-25T04:30:26Z</time>
            </trkpt>
            <trkpt lon="101.059618" lat="15.242671">
                <ele>76.080000</ele>
                <time>2017-06-25T04:30:27Z</time>
            </trkpt>
            <trkpt lon="101.059626" lat="15.242626">
                <ele>76.080000</ele>
                <time>2017-06-25T04:30:28Z</time>
            </trkpt>
            <trkpt lon="101.059636" lat="15.242576">
                <ele>76.080000</ele>
                <time>2017-06-25T04:30:29Z</time>
            </trkpt>
            <trkpt lon="101.059647" lat="15.242476">
                <ele>75.600000</ele>
                <time>2017-06-25T04:30:31Z</time>
            </trkpt>
            <trkpt lon="101.059645" lat="15.242427">
                <ele>75.600000</ele>
                <time>2017-06-25T04:30:32Z</time>
            </trkpt>
            <trkpt lon="101.059635" lat="15.242381">
                <ele>76.080000</ele>
                <time>2017-06-25T04:30:33Z</time>
            </trkpt>
            <trkpt lon="101.059619" lat="15.242337">
                <ele>76.080000</ele>
                <time>2017-06-25T04:30:34Z</time>
            </trkpt>
            <trkpt lon="101.059601" lat="15.242298">
                <ele>76.560000</ele>
                <time>2017-06-25T04:30:35Z</time>
            </trkpt>
            <trkpt lon="101.059580" lat="15.242260">
                <ele>76.560000</ele>
                <time>2017-06-25T04:30:36Z</time>
            </trkpt>
            <trkpt lon="101.059555" lat="15.242224">
                <ele>76.560000</ele>
                <time>2017-06-25T04:30:37Z</time>
            </trkpt>
            <trkpt lon="101.059529" lat="15.242189">
                <ele>76.560000</ele>
                <time>2017-06-25T04:30:38Z</time>
            </trkpt>
            <trkpt lon="101.059131" lat="15.241580">
                <ele>78.000000</ele>
                <time>2017-06-25T04:30:56Z</time>
            </trkpt>
            <trkpt lon="101.058769" lat="15.241264">
                <ele>79.450000</ele>
                <time>2017-06-25T04:31:11Z</time>
            </trkpt>
            <trkpt lon="101.058613" lat="15.240955">
                <ele>80.410000</ele>
                <time>2017-06-25T04:31:25Z</time>
            </trkpt>
            <trkpt lon="101.058525" lat="15.240430">
                <ele>81.370000</ele>
                <time>2017-06-25T04:31:42Z</time>
            </trkpt>
            <trkpt lon="101.058478" lat="15.240009">
                <ele>82.810000</ele>
                <time>2017-06-25T04:31:58Z</time>
            </trkpt>
            <trkpt lon="101.058387" lat="15.239474">
                <ele>84.250000</ele>
                <time>2017-06-25T04:32:16Z</time>
            </trkpt>
            <trkpt lon="101.058329" lat="15.238956">
                <ele>84.730000</ele>
                <time>2017-06-25T04:32:33Z</time>
            </trkpt>
            <trkpt lon="101.058261" lat="15.238446">
                <ele>85.210000</ele>
                <time>2017-06-25T04:32:51Z</time>
            </trkpt>
            <trkpt lon="101.057992" lat="15.237992">
                <ele>85.690000</ele>
                <time>2017-06-25T04:33:08Z</time>
            </trkpt>
            <trkpt lon="101.057683" lat="15.237547">
                <ele>87.140000</ele>
                <time>2017-06-25T04:33:26Z</time>
            </trkpt>
            <trkpt lon="101.057523" lat="15.237271">
                <ele>87.620000</ele>
                <time>2017-06-25T04:33:38Z</time>
            </trkpt>
            <trkpt lon="101.057315" lat="15.236858">
                <ele>88.580000</ele>
                <time>2017-06-25T04:33:53Z</time>
            </trkpt>
            <trkpt lon="101.057309" lat="15.236815">
                <ele>89.060000</ele>
                <time>2017-06-25T04:33:55Z</time>
            </trkpt>
            <trkpt lon="101.057572" lat="15.236482">
                <ele>86.180000</ele>
                <time>2017-06-25T04:34:10Z</time>
            </trkpt>
            <trkpt lon="101.057796" lat="15.236189">
                <ele>85.690000</ele>
                <time>2017-06-25T04:34:22Z</time>
            </trkpt>
            <trkpt lon="101.058032" lat="15.235937">
                <ele>85.210000</ele>
                <time>2017-06-25T04:34:33Z</time>
            </trkpt>
            <trkpt lon="101.058350" lat="15.235522">
                <ele>86.660000</ele>
                <time>2017-06-25T04:34:48Z</time>
            </trkpt>
            <trkpt lon="101.058656" lat="15.235196">
                <ele>86.660000</ele>
                <time>2017-06-25T04:35:00Z</time>
            </trkpt>
            <trkpt lon="101.058938" lat="15.234796">
                <ele>86.180000</ele>
                <time>2017-06-25T04:35:14Z</time>
            </trkpt>
            <trkpt lon="101.058877" lat="15.234517">
                <ele>86.660000</ele>
                <time>2017-06-25T04:35:24Z</time>
            </trkpt>
            <trkpt lon="101.058613" lat="15.234095">
                <ele>85.690000</ele>
                <time>2017-06-25T04:35:39Z</time>
            </trkpt>
            <trkpt lon="101.058503" lat="15.233763">
                <ele>87.140000</ele>
                <time>2017-06-25T04:35:50Z</time>
            </trkpt>
            <trkpt lon="101.058559" lat="15.233331">
                <ele>86.180000</ele>
                <time>2017-06-25T04:36:04Z</time>
            </trkpt>
            <trkpt lon="101.058830" lat="15.232841">
                <ele>87.620000</ele>
                <time>2017-06-25T04:36:20Z</time>
            </trkpt>
            <trkpt lon="101.058993" lat="15.232762">
                <ele>88.100000</ele>
                <time>2017-06-25T04:36:25Z</time>
            </trkpt>
            <trkpt lon="101.059538" lat="15.232637">
                <ele>88.100000</ele>
                <time>2017-06-25T04:36:40Z</time>
            </trkpt>
            <trkpt lon="101.059540" lat="15.232604">
                <ele>88.100000</ele>
                <time>2017-06-25T04:36:41Z</time>
            </trkpt>
            <trkpt lon="101.059539" lat="15.232567">
                <ele>88.100000</ele>
                <time>2017-06-25T04:36:42Z</time>
            </trkpt>
            <trkpt lon="101.059534" lat="15.232528">
                <ele>88.100000</ele>
                <time>2017-06-25T04:36:43Z</time>
            </trkpt>
            <trkpt lon="101.059525" lat="15.232488">
                <ele>88.100000</ele>
                <time>2017-06-25T04:36:44Z</time>
            </trkpt>
            <trkpt lon="101.059443" lat="15.231844">
                <ele>90.020000</ele>
                <time>2017-06-25T04:37:01Z</time>
            </trkpt>
            <trkpt lon="101.059439" lat="15.231371">
                <ele>91.460000</ele>
                <time>2017-06-25T04:37:19Z</time>
            </trkpt>
            <trkpt lon="101.059595" lat="15.230918">
                <ele>92.900000</ele>
                <time>2017-06-25T04:37:38Z</time>
            </trkpt>
            <trkpt lon="101.059729" lat="15.230577">
                <ele>94.350000</ele>
                <time>2017-06-25T04:37:54Z</time>
            </trkpt>
            <trkpt lon="101.059922" lat="15.230069">
                <ele>95.310000</ele>
                <time>2017-06-25T04:38:11Z</time>
            </trkpt>
            <trkpt lon="101.060157" lat="15.229389">
                <ele>93.870000</ele>
                <time>2017-06-25T04:38:28Z</time>
            </trkpt>
            <trkpt lon="101.060184" lat="15.229120">
                <ele>92.420000</ele>
                <time>2017-06-25T04:38:33Z</time>
            </trkpt>
            <trkpt lon="101.060423" lat="15.228231">
                <ele>89.060000</ele>
                <time>2017-06-25T04:38:48Z</time>
            </trkpt>
            <trkpt lon="101.060675" lat="15.227500">
                <ele>90.500000</ele>
                <time>2017-06-25T04:39:03Z</time>
            </trkpt>
            <trkpt lon="101.060928" lat="15.226710">
                <ele>91.460000</ele>
                <time>2017-06-25T04:39:23Z</time>
            </trkpt>
            <trkpt lon="101.060946" lat="15.225877">
                <ele>90.500000</ele>
                <time>2017-06-25T04:39:40Z</time>
            </trkpt>
            <trkpt lon="101.060740" lat="15.225100">
                <ele>91.460000</ele>
                <time>2017-06-25T04:39:56Z</time>
            </trkpt>
            <trkpt lon="101.060452" lat="15.224505">
                <ele>94.830000</ele>
                <time>2017-06-25T04:40:13Z</time>
            </trkpt>
            <trkpt lon="101.060053" lat="15.223962">
                <ele>94.830000</ele>
                <time>2017-06-25T04:40:29Z</time>
            </trkpt>
            <trkpt lon="101.059546" lat="15.223379">
                <ele>95.310000</ele>
                <time>2017-06-25T04:40:46Z</time>
            </trkpt>
            <trkpt lon="101.059132" lat="15.222876">
                <ele>94.350000</ele>
                <time>2017-06-25T04:41:01Z</time>
            </trkpt>
            <trkpt lon="101.059143" lat="15.222860">
                <ele>94.350000</ele>
                <time>2017-06-25T04:41:02Z</time>
            </trkpt>
            <trkpt lon="101.059232" lat="15.222818">
                <ele>93.390000</ele>
                <time>2017-06-25T04:41:05Z</time>
            </trkpt>
            <trkpt lon="101.059614" lat="15.222738">
                <ele>92.900000</ele>
                <time>2017-06-25T04:41:13Z</time>
            </trkpt>
            <trkpt lon="101.060309" lat="15.222651">
                <ele>92.420000</ele>
                <time>2017-06-25T04:41:27Z</time>
            </trkpt>
            <trkpt lon="101.061024" lat="15.222617">
                <ele>90.980000</ele>
                <time>2017-06-25T04:41:41Z</time>
            </trkpt>
            <trkpt lon="101.061115" lat="15.222616">
                <ele>90.500000</ele>
                <time>2017-06-25T04:41:43Z</time>
            </trkpt>
            <trkpt lon="101.061252" lat="15.222609">
                <ele>89.540000</ele>
                <time>2017-06-25T04:41:46Z</time>
            </trkpt>
            <trkpt lon="101.061789" lat="15.222509">
                <ele>88.100000</ele>
                <time>2017-06-25T04:41:58Z</time>
            </trkpt>
            <trkpt lon="101.061788" lat="15.222508">
                <ele>87.620000</ele>
                <time>2017-06-25T04:42:06Z</time>
            </trkpt>
            <trkpt lon="101.061711" lat="15.222535">
                <ele>88.100000</ele>
                <time>2017-06-25T04:42:11Z</time>
            </trkpt>
            <trkpt lon="101.061237" lat="15.222579">
                <ele>89.060000</ele>
                <time>2017-06-25T04:42:27Z</time>
            </trkpt>
            <trkpt lon="101.060932" lat="15.222617">
                <ele>90.020000</ele>
                <time>2017-06-25T04:42:38Z</time>
            </trkpt>
            <trkpt lon="101.060777" lat="15.222412">
                <ele>90.980000</ele>
                <time>2017-06-25T04:42:48Z</time>
            </trkpt>
            <trkpt lon="101.060665" lat="15.221989">
                <ele>90.020000</ele>
                <time>2017-06-25T04:43:01Z</time>
            </trkpt>
            <trkpt lon="101.060622" lat="15.221796">
                <ele>90.020000</ele>
                <time>2017-06-25T04:43:07Z</time>
            </trkpt>
            <trkpt lon="101.060749" lat="15.221700">
                <ele>90.020000</ele>
                <time>2017-06-25T04:43:17Z</time>
            </trkpt>
            <trkpt lon="101.060748" lat="15.221693">
                <ele>90.020000</ele>
                <time>2017-06-25T04:43:18Z</time>
            </trkpt>
            <trkpt lon="101.060719" lat="15.221454">
                <ele>88.580000</ele>
                <time>2017-06-25T04:43:29Z</time>
            </trkpt>
            <trkpt lon="101.060810" lat="15.221426">
                <ele>89.060000</ele>
                <time>2017-06-25T04:43:34Z</time>
            </trkpt>
            <trkpt lon="101.061202" lat="15.221361">
                <ele>90.020000</ele>
                <time>2017-06-25T04:43:48Z</time>
            </trkpt>
            <trkpt lon="101.061739" lat="15.221310">
                <ele>90.980000</ele>
                <time>2017-06-25T04:44:05Z</time>
            </trkpt>
            <trkpt lon="101.061761" lat="15.221303">
                <ele>90.980000</ele>
                <time>2017-06-25T04:44:06Z</time>
            </trkpt>
            <trkpt lon="101.061847" lat="15.220927">
                <ele>88.580000</ele>
                <time>2017-06-25T04:44:17Z</time>
            </trkpt>
            <trkpt lon="101.061928" lat="15.220772">
                <ele>89.060000</ele>
                <time>2017-06-25T04:44:21Z</time>
            </trkpt>
            <trkpt lon="101.062239" lat="15.220384">
                <ele>87.140000</ele>
                <time>2017-06-25T04:44:32Z</time>
            </trkpt>
            <trkpt lon="101.062570" lat="15.219847">
                <ele>86.660000</ele>
                <time>2017-06-25T04:44:47Z</time>
            </trkpt>
            <trkpt lon="101.062593" lat="15.219809">
                <ele>86.660000</ele>
                <time>2017-06-25T04:44:48Z</time>
            </trkpt>
            <trkpt lon="101.062625" lat="15.219774">
                <ele>86.660000</ele>
                <time>2017-06-25T04:44:49Z</time>
            </trkpt>
            <trkpt lon="101.062665" lat="15.219743">
                <ele>86.660000</ele>
                <time>2017-06-25T04:44:50Z</time>
            </trkpt>
            <trkpt lon="101.062712" lat="15.219716">
                <ele>86.660000</ele>
                <time>2017-06-25T04:44:51Z</time>
            </trkpt>
            <trkpt lon="101.062756" lat="15.219692">
                <ele>86.660000</ele>
                <time>2017-06-25T04:44:52Z</time>
            </trkpt>
            <trkpt lon="101.063469" lat="15.219355">
                <ele>86.660000</ele>
                <time>2017-06-25T04:45:07Z</time>
            </trkpt>
            <trkpt lon="101.064249" lat="15.218987">
                <ele>84.730000</ele>
                <time>2017-06-25T04:45:23Z</time>
            </trkpt>
            <trkpt lon="101.064286" lat="15.218975">
                <ele>84.730000</ele>
                <time>2017-06-25T04:45:24Z</time>
            </trkpt>
            <trkpt lon="101.064327" lat="15.218981">
                <ele>84.250000</ele>
                <time>2017-06-25T04:45:25Z</time>
            </trkpt>
            <trkpt lon="101.064357" lat="15.219006">
                <ele>84.250000</ele>
                <time>2017-06-25T04:45:26Z</time>
            </trkpt>
            <trkpt lon="101.064378" lat="15.219044">
                <ele>84.250000</ele>
                <time>2017-06-25T04:45:27Z</time>
            </trkpt>
            <trkpt lon="101.064395" lat="15.219089">
                <ele>84.250000</ele>
                <time>2017-06-25T04:45:28Z</time>
            </trkpt>
            <trkpt lon="101.064675" lat="15.219801">
                <ele>83.770000</ele>
                <time>2017-06-25T04:45:44Z</time>
            </trkpt>
            <trkpt lon="101.064989" lat="15.220593">
                <ele>84.250000</ele>
                <time>2017-06-25T04:46:02Z</time>
            </trkpt>
            <trkpt lon="101.065304" lat="15.221440">
                <ele>84.730000</ele>
                <time>2017-06-25T04:46:19Z</time>
            </trkpt>
            <trkpt lon="101.065660" lat="15.222426">
                <ele>85.210000</ele>
                <time>2017-06-25T04:46:38Z</time>
            </trkpt>
            <trkpt lon="101.065903" lat="15.223126">
                <ele>85.690000</ele>
                <time>2017-06-25T04:46:51Z</time>
            </trkpt>
            <trkpt lon="101.066335" lat="15.224224">
                <ele>85.210000</ele>
                <time>2017-06-25T04:47:11Z</time>
            </trkpt>
            <trkpt lon="101.066865" lat="15.225074">
                <ele>83.770000</ele>
                <time>2017-06-25T04:47:27Z</time>
            </trkpt>
            <trkpt lon="101.067407" lat="15.223974">
                <ele>84.730000</ele>
                <time>2017-06-25T04:52:34Z</time>
            </trkpt>
            <trkpt lon="101.067975" lat="15.223951">
                <ele>83.770000</ele>
                <time>2017-06-25T04:52:49Z</time>
            </trkpt>
            <trkpt lon="101.068051" lat="15.223949">
                <ele>83.770000</ele>
                <time>2017-06-25T04:52:51Z</time>
            </trkpt>
            <trkpt lon="101.068231" lat="15.224032">
                <ele>82.330000</ele>
                <time>2017-06-25T04:52:55Z</time>
            </trkpt>
            <trkpt lon="101.068347" lat="15.224099">
                <ele>81.850000</ele>
                <time>2017-06-25T04:52:58Z</time>
            </trkpt>
            <trkpt lon="101.068425" lat="15.224165">
                <ele>81.370000</ele>
                <time>2017-06-25T04:53:00Z</time>
            </trkpt>
            <trkpt lon="101.068903" lat="15.224535">
                <ele>78.970000</ele>
                <time>2017-06-25T04:53:13Z</time>
            </trkpt>
            <trkpt lon="101.069110" lat="15.224564">
                <ele>78.480000</ele>
                <time>2017-06-25T04:53:18Z</time>
            </trkpt>
            <trkpt lon="101.069556" lat="15.224316">
                <ele>79.450000</ele>
                <time>2017-06-25T04:53:32Z</time>
            </trkpt>
            <trkpt lon="101.069839" lat="15.224161">
                <ele>78.480000</ele>
                <time>2017-06-25T04:53:40Z</time>
            </trkpt>
            <trkpt lon="101.070240" lat="15.223757">
                <ele>78.000000</ele>
                <time>2017-06-25T04:53:55Z</time>
            </trkpt>
            <trkpt lon="101.070597" lat="15.223518">
                <ele>78.970000</ele>
                <time>2017-06-25T04:54:09Z</time>
            </trkpt>
            <trkpt lon="101.070936" lat="15.223342">
                <ele>78.480000</ele>
                <time>2017-06-25T04:54:22Z</time>
            </trkpt>
            <trkpt lon="101.071416" lat="15.223274">
                <ele>80.890000</ele>
                <time>2017-06-25T04:54:38Z</time>
            </trkpt>
            <trkpt lon="101.071903" lat="15.223254">
                <ele>80.890000</ele>
                <time>2017-06-25T04:54:52Z</time>
            </trkpt>
            <trkpt lon="101.072529" lat="15.223012">
                <ele>79.930000</ele>
                <time>2017-06-25T04:55:10Z</time>
            </trkpt>
            <trkpt lon="101.073013" lat="15.222842">
                <ele>80.410000</ele>
                <time>2017-06-25T04:55:22Z</time>
            </trkpt>
            <trkpt lon="101.073358" lat="15.222715">
                <ele>81.370000</ele>
                <time>2017-06-25T04:55:36Z</time>
            </trkpt>
            <trkpt lon="101.073816" lat="15.222543">
                <ele>80.890000</ele>
                <time>2017-06-25T04:55:50Z</time>
            </trkpt>
            <trkpt lon="101.074065" lat="15.222454">
                <ele>79.930000</ele>
                <time>2017-06-25T04:55:55Z</time>
            </trkpt>
            <trkpt lon="101.074291" lat="15.222492">
                <ele>80.410000</ele>
                <time>2017-06-25T04:56:00Z</time>
            </trkpt>
            <trkpt lon="101.074488" lat="15.222515">
                <ele>81.370000</ele>
                <time>2017-06-25T04:56:05Z</time>
            </trkpt>
            <trkpt lon="101.074892" lat="15.222494">
                <ele>84.250000</ele>
                <time>2017-06-25T04:56:22Z</time>
            </trkpt>
            <trkpt lon="101.074962" lat="15.222460">
                <ele>85.690000</ele>
                <time>2017-06-25T04:56:27Z</time>
            </trkpt>
            <trkpt lon="101.075112" lat="15.222375">
                <ele>85.690000</ele>
                <time>2017-06-25T04:56:35Z</time>
            </trkpt>
            <trkpt lon="101.075455" lat="15.222400">
                <ele>85.210000</ele>
                <time>2017-06-25T04:56:48Z</time>
            </trkpt>
            <trkpt lon="101.075863" lat="15.222789">
                <ele>85.210000</ele>
                <time>2017-06-25T04:57:05Z</time>
            </trkpt>
            <trkpt lon="101.076369" lat="15.223219">
                <ele>82.810000</ele>
                <time>2017-06-25T04:57:21Z</time>
            </trkpt>
            <trkpt lon="101.076392" lat="15.223257">
                <ele>82.810000</ele>
                <time>2017-06-25T04:57:22Z</time>
            </trkpt>
            <trkpt lon="101.076410" lat="15.223297">
                <ele>82.810000</ele>
                <time>2017-06-25T04:57:23Z</time>
            </trkpt>
            <trkpt lon="101.076684" lat="15.224028">
                <ele>83.290000</ele>
                <time>2017-06-25T04:57:40Z</time>
            </trkpt>
            <trkpt lon="101.076725" lat="15.224120">
                <ele>83.290000</ele>
                <time>2017-06-25T04:57:42Z</time>
            </trkpt>
            <trkpt lon="101.076811" lat="15.224474">
                <ele>84.250000</ele>
                <time>2017-06-25T04:57:50Z</time>
            </trkpt>
            <trkpt lon="101.076822" lat="15.224516">
                <ele>84.250000</ele>
                <time>2017-06-25T04:57:51Z</time>
            </trkpt>
            <trkpt lon="101.076837" lat="15.224558">
                <ele>84.250000</ele>
                <time>2017-06-25T04:57:52Z</time>
            </trkpt>
            <trkpt lon="101.076858" lat="15.224600">
                <ele>84.250000</ele>
                <time>2017-06-25T04:57:53Z</time>
            </trkpt>
            <trkpt lon="101.076881" lat="15.224639">
                <ele>84.250000</ele>
                <time>2017-06-25T04:57:54Z</time>
            </trkpt>
            <trkpt lon="101.076907" lat="15.224676">
                <ele>83.770000</ele>
                <time>2017-06-25T04:57:55Z</time>
            </trkpt>
            <trkpt lon="101.076938" lat="15.224714">
                <ele>83.770000</ele>
                <time>2017-06-25T04:57:56Z</time>
            </trkpt>
            <trkpt lon="101.076997" lat="15.224803">
                <ele>83.290000</ele>
                <time>2017-06-25T04:57:58Z</time>
            </trkpt>
            <trkpt lon="101.077019" lat="15.224853">
                <ele>83.290000</ele>
                <time>2017-06-25T04:57:59Z</time>
            </trkpt>
            <trkpt lon="101.077036" lat="15.224905">
                <ele>83.290000</ele>
                <time>2017-06-25T04:58:00Z</time>
            </trkpt>
            <trkpt lon="101.077346" lat="15.225732">
                <ele>81.850000</ele>
                <time>2017-06-25T04:58:16Z</time>
            </trkpt>
            <trkpt lon="101.077365" lat="15.225780">
                <ele>81.850000</ele>
                <time>2017-06-25T04:58:17Z</time>
            </trkpt>
            <trkpt lon="101.077459" lat="15.225948">
                <ele>81.850000</ele>
                <time>2017-06-25T04:58:21Z</time>
            </trkpt>
            <trkpt lon="101.077494" lat="15.225984">
                <ele>81.850000</ele>
                <time>2017-06-25T04:58:22Z</time>
            </trkpt>
            <trkpt lon="101.077730" lat="15.226213">
                <ele>80.410000</ele>
                <time>2017-06-25T04:58:28Z</time>
            </trkpt>
            <trkpt lon="101.077766" lat="15.226262">
                <ele>80.410000</ele>
                <time>2017-06-25T04:58:29Z</time>
            </trkpt>
            <trkpt lon="101.077860" lat="15.226416">
                <ele>79.930000</ele>
                <time>2017-06-25T04:58:32Z</time>
            </trkpt>
            <trkpt lon="101.077881" lat="15.226470">
                <ele>79.450000</ele>
                <time>2017-06-25T04:58:33Z</time>
            </trkpt>
            <trkpt lon="101.077898" lat="15.226526">
                <ele>79.450000</ele>
                <time>2017-06-25T04:58:34Z</time>
            </trkpt>
            <trkpt lon="101.077980" lat="15.226785">
                <ele>79.450000</ele>
                <time>2017-06-25T04:58:39Z</time>
            </trkpt>
            <trkpt lon="101.078119" lat="15.227078">
                <ele>78.970000</ele>
                <time>2017-06-25T04:58:45Z</time>
            </trkpt>
            <trkpt lon="101.078151" lat="15.227127">
                <ele>78.970000</ele>
                <time>2017-06-25T04:58:46Z</time>
            </trkpt>
            <trkpt lon="101.078184" lat="15.227170">
                <ele>78.970000</ele>
                <time>2017-06-25T04:58:47Z</time>
            </trkpt>
            <trkpt lon="101.078220" lat="15.227211">
                <ele>78.970000</ele>
                <time>2017-06-25T04:58:48Z</time>
            </trkpt>
            <trkpt lon="101.078261" lat="15.227251">
                <ele>78.970000</ele>
                <time>2017-06-25T04:58:49Z</time>
            </trkpt>
            <trkpt lon="101.078726" lat="15.227825">
                <ele>78.000000</ele>
                <time>2017-06-25T04:59:03Z</time>
            </trkpt>
            <trkpt lon="101.079419" lat="15.228692">
                <ele>76.080000</ele>
                <time>2017-06-25T04:59:24Z</time>
            </trkpt>
            <trkpt lon="101.079973" lat="15.229267">
                <ele>73.200000</ele>
                <time>2017-06-25T04:59:38Z</time>
            </trkpt>
            <trkpt lon="101.080408" lat="15.229565">
                <ele>72.240000</ele>
                <time>2017-06-25T04:59:47Z</time>
            </trkpt>
            <trkpt lon="101.080560" lat="15.229722">
                <ele>72.240000</ele>
                <time>2017-06-25T04:59:51Z</time>
            </trkpt>
            <trkpt lon="101.080589" lat="15.229769">
                <ele>71.760000</ele>
                <time>2017-06-25T04:59:52Z</time>
            </trkpt>
            <trkpt lon="101.080636" lat="15.229866">
                <ele>71.760000</ele>
                <time>2017-06-25T04:59:54Z</time>
            </trkpt>
            <trkpt lon="101.080649" lat="15.229920">
                <ele>71.270000</ele>
                <time>2017-06-25T04:59:55Z</time>
            </trkpt>
            <trkpt lon="101.080648" lat="15.229981">
                <ele>71.270000</ele>
                <time>2017-06-25T04:59:56Z</time>
            </trkpt>
            <trkpt lon="101.080631" lat="15.230032">
                <ele>71.270000</ele>
                <time>2017-06-25T04:59:57Z</time>
            </trkpt>
            <trkpt lon="101.080602" lat="15.230077">
                <ele>70.790000</ele>
                <time>2017-06-25T04:59:58Z</time>
            </trkpt>
            <trkpt lon="101.080575" lat="15.230116">
                <ele>70.790000</ele>
                <time>2017-06-25T04:59:59Z</time>
            </trkpt>
            <trkpt lon="101.080515" lat="15.230204">
                <ele>70.310000</ele>
                <time>2017-06-25T05:00:01Z</time>
            </trkpt>
            <trkpt lon="101.080490" lat="15.230251">
                <ele>70.310000</ele>
                <time>2017-06-25T05:00:02Z</time>
            </trkpt>
            <trkpt lon="101.080469" lat="15.230298">
                <ele>70.310000</ele>
                <time>2017-06-25T05:00:03Z</time>
            </trkpt>
            <trkpt lon="101.080412" lat="15.230438">
                <ele>69.830000</ele>
                <time>2017-06-25T05:00:06Z</time>
            </trkpt>
            <trkpt lon="101.080399" lat="15.230484">
                <ele>69.830000</ele>
                <time>2017-06-25T05:00:07Z</time>
            </trkpt>
            <trkpt lon="101.080392" lat="15.230530">
                <ele>69.830000</ele>
                <time>2017-06-25T05:00:08Z</time>
            </trkpt>
            <trkpt lon="101.080391" lat="15.230576">
                <ele>69.830000</ele>
                <time>2017-06-25T05:00:09Z</time>
            </trkpt>
            <trkpt lon="101.080394" lat="15.230621">
                <ele>70.310000</ele>
                <time>2017-06-25T05:00:10Z</time>
            </trkpt>
            <trkpt lon="101.080399" lat="15.230666">
                <ele>70.310000</ele>
                <time>2017-06-25T05:00:11Z</time>
            </trkpt>
            <trkpt lon="101.080507" lat="15.231454">
                <ele>70.790000</ele>
                <time>2017-06-25T05:00:27Z</time>
            </trkpt>
            <trkpt lon="101.080632" lat="15.232164">
                <ele>69.830000</ele>
                <time>2017-06-25T05:00:41Z</time>
            </trkpt>
            <trkpt lon="101.080852" lat="15.232982">
                <ele>69.350000</ele>
                <time>2017-06-25T05:00:57Z</time>
            </trkpt>
            <trkpt lon="101.081121" lat="15.233743">
                <ele>70.310000</ele>
                <time>2017-06-25T05:01:12Z</time>
            </trkpt>
            <trkpt lon="101.081436" lat="15.234600">
                <ele>68.870000</ele>
                <time>2017-06-25T05:01:28Z</time>
            </trkpt>
            <trkpt lon="101.081609" lat="15.235436">
                <ele>65.510000</ele>
                <time>2017-06-25T05:01:44Z</time>
            </trkpt>
            <trkpt lon="101.081630" lat="15.235922">
                <ele>64.550000</ele>
                <time>2017-06-25T05:01:53Z</time>
            </trkpt>
            <trkpt lon="101.081556" lat="15.236189">
                <ele>64.550000</ele>
                <time>2017-06-25T05:02:00Z</time>
            </trkpt>
            <trkpt lon="101.081533" lat="15.236206">
                <ele>64.550000</ele>
                <time>2017-06-25T05:02:01Z</time>
            </trkpt>
            <trkpt lon="101.081508" lat="15.236229">
                <ele>64.550000</ele>
                <time>2017-06-25T05:02:02Z</time>
            </trkpt>
            <trkpt lon="101.081481" lat="15.236254">
                <ele>64.550000</ele>
                <time>2017-06-25T05:02:03Z</time>
            </trkpt>
            <trkpt lon="101.081457" lat="15.236285">
                <ele>65.030000</ele>
                <time>2017-06-25T05:02:04Z</time>
            </trkpt>
            <trkpt lon="101.081440" lat="15.236320">
                <ele>64.550000</ele>
                <time>2017-06-25T05:02:05Z</time>
            </trkpt>
            <trkpt lon="101.081433" lat="15.236361">
                <ele>64.550000</ele>
                <time>2017-06-25T05:02:06Z</time>
            </trkpt>
            <trkpt lon="101.081434" lat="15.236406">
                <ele>64.550000</ele>
                <time>2017-06-25T05:02:07Z</time>
            </trkpt>
            <trkpt lon="101.081437" lat="15.236448">
                <ele>64.550000</ele>
                <time>2017-06-25T05:02:08Z</time>
            </trkpt>
            <trkpt lon="101.081437" lat="15.236489">
                <ele>64.070000</ele>
                <time>2017-06-25T05:02:09Z</time>
            </trkpt>
            <trkpt lon="101.081431" lat="15.236531">
                <ele>64.070000</ele>
                <time>2017-06-25T05:02:10Z</time>
            </trkpt>
            <trkpt lon="101.081423" lat="15.236572">
                <ele>64.070000</ele>
                <time>2017-06-25T05:02:11Z</time>
            </trkpt>
            <trkpt lon="101.081393" lat="15.237235">
                <ele>65.030000</ele>
                <time>2017-06-25T05:02:25Z</time>
            </trkpt>
            <trkpt lon="101.081387" lat="15.237646">
                <ele>64.550000</ele>
                <time>2017-06-25T05:02:34Z</time>
            </trkpt>
            <trkpt lon="101.081475" lat="15.237704">
                <ele>64.070000</ele>
                <time>2017-06-25T05:02:37Z</time>
            </trkpt>
            <trkpt lon="101.081960" lat="15.237959">
                <ele>64.550000</ele>
                <time>2017-06-25T05:02:53Z</time>
            </trkpt>
            <trkpt lon="101.082164" lat="15.238218">
                <ele>64.070000</ele>
                <time>2017-06-25T05:03:01Z</time>
            </trkpt>
            <trkpt lon="101.082411" lat="15.238312">
                <ele>64.550000</ele>
                <time>2017-06-25T05:03:08Z</time>
            </trkpt>
            <trkpt lon="101.082605" lat="15.238216">
                <ele>64.070000</ele>
                <time>2017-06-25T05:03:13Z</time>
            </trkpt>
            <trkpt lon="101.083066" lat="15.238311">
                <ele>63.580000</ele>
                <time>2017-06-25T05:03:24Z</time>
            </trkpt>
            <trkpt lon="101.083090" lat="15.238340">
                <ele>63.580000</ele>
                <time>2017-06-25T05:03:25Z</time>
            </trkpt>
            <trkpt lon="101.083294" lat="15.238524">
                <ele>63.100000</ele>
                <time>2017-06-25T05:03:32Z</time>
            </trkpt>
            <trkpt lon="101.083448" lat="15.238429">
                <ele>62.140000</ele>
                <time>2017-06-25T05:03:37Z</time>
            </trkpt>
            <trkpt lon="101.083518" lat="15.238380">
                <ele>62.140000</ele>
                <time>2017-06-25T05:03:39Z</time>
            </trkpt>
            <trkpt lon="101.083730" lat="15.238301">
                <ele>61.180000</ele>
                <time>2017-06-25T05:03:44Z</time>
            </trkpt>
            <trkpt lon="101.084085" lat="15.238475">
                <ele>61.660000</ele>
                <time>2017-06-25T05:03:53Z</time>
            </trkpt>
            <trkpt lon="101.084104" lat="15.238514">
                <ele>61.660000</ele>
                <time>2017-06-25T05:03:54Z</time>
            </trkpt>
            <trkpt lon="101.084212" lat="15.238711">
                <ele>62.620000</ele>
                <time>2017-06-25T05:03:59Z</time>
            </trkpt>
            <trkpt lon="101.084633" lat="15.238844">
                <ele>61.660000</ele>
                <time>2017-06-25T05:04:09Z</time>
            </trkpt>
            <trkpt lon="101.084711" lat="15.238823">
                <ele>61.660000</ele>
                <time>2017-06-25T05:04:11Z</time>
            </trkpt>
            <trkpt lon="101.085015" lat="15.238884">
                <ele>61.660000</ele>
                <time>2017-06-25T05:04:18Z</time>
            </trkpt>
            <trkpt lon="101.085165" lat="15.239007">
                <ele>61.180000</ele>
                <time>2017-06-25T05:04:22Z</time>
            </trkpt>
            <trkpt lon="101.085300" lat="15.239062">
                <ele>61.180000</ele>
                <time>2017-06-25T05:04:25Z</time>
            </trkpt>
            <trkpt lon="101.085570" lat="15.239229">
                <ele>60.700000</ele>
                <time>2017-06-25T05:04:32Z</time>
            </trkpt>
            <trkpt lon="101.085727" lat="15.239327">
                <ele>60.220000</ele>
                <time>2017-06-25T05:04:36Z</time>
            </trkpt>
            <trkpt lon="101.085838" lat="15.239420">
                <ele>59.740000</ele>
                <time>2017-06-25T05:04:39Z</time>
            </trkpt>
            <trkpt lon="101.086085" lat="15.239448">
                <ele>59.740000</ele>
                <time>2017-06-25T05:04:45Z</time>
            </trkpt>
            <trkpt lon="101.086153" lat="15.239404">
                <ele>59.740000</ele>
                <time>2017-06-25T05:04:47Z</time>
            </trkpt>
            <trkpt lon="101.086366" lat="15.239356">
                <ele>59.740000</ele>
                <time>2017-06-25T05:04:52Z</time>
            </trkpt>
            <trkpt lon="101.086623" lat="15.239441">
                <ele>60.220000</ele>
                <time>2017-06-25T05:04:58Z</time>
            </trkpt>
            <trkpt lon="101.086843" lat="15.239520">
                <ele>60.220000</ele>
                <time>2017-06-25T05:05:03Z</time>
            </trkpt>
            <trkpt lon="101.087067" lat="15.239464">
                <ele>60.700000</ele>
                <time>2017-06-25T05:05:08Z</time>
            </trkpt>
            <trkpt lon="101.087385" lat="15.239448">
                <ele>61.660000</ele>
                <time>2017-06-25T05:05:15Z</time>
            </trkpt>
            <trkpt lon="101.087555" lat="15.239439">
                <ele>62.140000</ele>
                <time>2017-06-25T05:05:19Z</time>
            </trkpt>
            <trkpt lon="101.087654" lat="15.239414">
                <ele>62.140000</ele>
                <time>2017-06-25T05:05:21Z</time>
            </trkpt>
            <trkpt lon="101.087956" lat="15.239498">
                <ele>61.180000</ele>
                <time>2017-06-25T05:05:28Z</time>
            </trkpt>
            <trkpt lon="101.088063" lat="15.239601">
                <ele>61.660000</ele>
                <time>2017-06-25T05:05:31Z</time>
            </trkpt>
            <trkpt lon="101.088225" lat="15.239694">
                <ele>62.140000</ele>
                <time>2017-06-25T05:05:35Z</time>
            </trkpt>
            <trkpt lon="101.088623" lat="15.239780">
                <ele>61.180000</ele>
                <time>2017-06-25T05:05:45Z</time>
            </trkpt>
            <trkpt lon="101.088971" lat="15.239796">
                <ele>61.660000</ele>
                <time>2017-06-25T05:05:57Z</time>
            </trkpt>
            <trkpt lon="101.088955" lat="15.239819">
                <ele>61.660000</ele>
                <time>2017-06-25T05:06:09Z</time>
            </trkpt>
            <trkpt lon="101.088952" lat="15.239926">
                <ele>61.180000</ele>
                <time>2017-06-25T05:06:14Z</time>
            </trkpt>
            <trkpt lon="101.089055" lat="15.240146">
                <ele>61.660000</ele>
                <time>2017-06-25T05:06:22Z</time>
            </trkpt>
            <trkpt lon="101.089088" lat="15.240149">
                <ele>61.660000</ele>
                <time>2017-06-25T05:06:23Z</time>
            </trkpt>
            <trkpt lon="101.089697" lat="15.240182">
                <ele>62.140000</ele>
                <time>2017-06-25T05:06:39Z</time>
            </trkpt>
            <trkpt lon="101.090135" lat="15.240089">
                <ele>63.100000</ele>
                <time>2017-06-25T05:06:53Z</time>
            </trkpt>
            <trkpt lon="101.090435" lat="15.239665">
                <ele>63.100000</ele>
                <time>2017-06-25T05:07:06Z</time>
            </trkpt>
            <trkpt lon="101.090854" lat="15.239082">
                <ele>63.580000</ele>
                <time>2017-06-25T05:07:21Z</time>
            </trkpt>
            <trkpt lon="101.090956" lat="15.238976">
                <ele>63.100000</ele>
                <time>2017-06-25T05:07:24Z</time>
            </trkpt>
            <trkpt lon="101.091113" lat="15.238822">
                <ele>63.100000</ele>
                <time>2017-06-25T05:07:29Z</time>
            </trkpt>
            <trkpt lon="101.091151" lat="15.238797">
                <ele>63.100000</ele>
                <time>2017-06-25T05:07:30Z</time>
            </trkpt>
            <trkpt lon="101.091397" lat="15.238642">
                <ele>62.620000</ele>
                <time>2017-06-25T05:07:36Z</time>
            </trkpt>
            <trkpt lon="101.091426" lat="15.238605">
                <ele>62.140000</ele>
                <time>2017-06-25T05:07:37Z</time>
            </trkpt>
            <trkpt lon="101.091450" lat="15.238561">
                <ele>62.140000</ele>
                <time>2017-06-25T05:07:38Z</time>
            </trkpt>
            <trkpt lon="101.091467" lat="15.238517">
                <ele>62.140000</ele>
                <time>2017-06-25T05:07:39Z</time>
            </trkpt>
            <trkpt lon="101.091480" lat="15.238470">
                <ele>62.140000</ele>
                <time>2017-06-25T05:07:40Z</time>
            </trkpt>
            <trkpt lon="101.091487" lat="15.238420">
                <ele>62.620000</ele>
                <time>2017-06-25T05:07:41Z</time>
            </trkpt>
            <trkpt lon="101.091491" lat="15.238374">
                <ele>62.140000</ele>
                <time>2017-06-25T05:07:42Z</time>
            </trkpt>
            <trkpt lon="101.091508" lat="15.238282">
                <ele>62.140000</ele>
                <time>2017-06-25T05:07:44Z</time>
            </trkpt>
            <trkpt lon="101.091539" lat="15.238202">
                <ele>61.660000</ele>
                <time>2017-06-25T05:07:46Z</time>
            </trkpt>
            <trkpt lon="101.091565" lat="15.238166">
                <ele>61.660000</ele>
                <time>2017-06-25T05:07:47Z</time>
            </trkpt>
            <trkpt lon="101.091599" lat="15.238133">
                <ele>61.180000</ele>
                <time>2017-06-25T05:07:48Z</time>
            </trkpt>
            <trkpt lon="101.091750" lat="15.238017">
                <ele>61.180000</ele>
                <time>2017-06-25T05:07:52Z</time>
            </trkpt>
            <trkpt lon="101.091829" lat="15.237967">
                <ele>61.180000</ele>
                <time>2017-06-25T05:07:54Z</time>
            </trkpt>
            <trkpt lon="101.091866" lat="15.237943">
                <ele>61.660000</ele>
                <time>2017-06-25T05:07:55Z</time>
            </trkpt>
            <trkpt lon="101.091901" lat="15.237920">
                <ele>61.180000</ele>
                <time>2017-06-25T05:07:56Z</time>
            </trkpt>
            <trkpt lon="101.091934" lat="15.237897">
                <ele>61.180000</ele>
                <time>2017-06-25T05:07:57Z</time>
            </trkpt>
            <trkpt lon="101.091968" lat="15.237871">
                <ele>61.180000</ele>
                <time>2017-06-25T05:07:58Z</time>
            </trkpt>
            <trkpt lon="101.092422" lat="15.237553">
                <ele>58.780000</ele>
                <time>2017-06-25T05:08:10Z</time>
            </trkpt>
            <trkpt lon="101.092674" lat="15.237511">
                <ele>57.820000</ele>
                <time>2017-06-25T05:08:15Z</time>
            </trkpt>
            <trkpt lon="101.093504" lat="15.237514">
                <ele>57.820000</ele>
                <time>2017-06-25T05:08:32Z</time>
            </trkpt>
            <trkpt lon="101.094377" lat="15.237507">
                <ele>57.340000</ele>
                <time>2017-06-25T05:08:50Z</time>
            </trkpt>
            <trkpt lon="101.094861" lat="15.237490">
                <ele>57.340000</ele>
                <time>2017-06-25T05:09:03Z</time>
            </trkpt>
            <trkpt lon="101.095402" lat="15.237492">
                <ele>57.340000</ele>
                <time>2017-06-25T05:09:15Z</time>
            </trkpt>
            <trkpt lon="101.095485" lat="15.237501">
                <ele>57.340000</ele>
                <time>2017-06-25T05:09:17Z</time>
            </trkpt>
            <trkpt lon="101.095940" lat="15.237414">
                <ele>58.300000</ele>
                <time>2017-06-25T05:09:31Z</time>
            </trkpt>
            <trkpt lon="101.095939" lat="15.237384">
                <ele>58.300000</ele>
                <time>2017-06-25T05:09:32Z</time>
            </trkpt>
            <trkpt lon="101.095936" lat="15.237350">
                <ele>58.300000</ele>
                <time>2017-06-25T05:09:33Z</time>
            </trkpt>
            <trkpt lon="101.095938" lat="15.237318">
                <ele>58.300000</ele>
                <time>2017-06-25T05:09:34Z</time>
            </trkpt>
            <trkpt lon="101.095939" lat="15.237284">
                <ele>58.300000</ele>
                <time>2017-06-25T05:09:35Z</time>
            </trkpt>
            <trkpt lon="101.095938" lat="15.237254">
                <ele>58.300000</ele>
                <time>2017-06-25T05:09:36Z</time>
            </trkpt>
            <trkpt lon="101.095942" lat="15.236749">
                <ele>57.820000</ele>
                <time>2017-06-25T05:09:50Z</time>
            </trkpt>
            <trkpt lon="101.095939" lat="15.235869">
                <ele>57.340000</ele>
                <time>2017-06-25T05:10:10Z</time>
            </trkpt>
            <trkpt lon="101.095947" lat="15.235791">
                <ele>57.820000</ele>
                <time>2017-06-25T05:10:12Z</time>
            </trkpt>
            <trkpt lon="101.095967" lat="15.235771">
                <ele>57.340000</ele>
                <time>2017-06-25T05:10:13Z</time>
            </trkpt>
            <trkpt lon="101.096099" lat="15.235768">
                <ele>57.340000</ele>
                <time>2017-06-25T05:10:17Z</time>
            </trkpt>
            <trkpt lon="101.097114" lat="15.235769">
                <ele>57.340000</ele>
                <time>2017-06-25T05:10:39Z</time>
            </trkpt>
            <trkpt lon="101.097655" lat="15.235758">
                <ele>57.820000</ele>
                <time>2017-06-25T05:10:51Z</time>
            </trkpt>
            <trkpt lon="101.097720" lat="15.235506">
                <ele>58.300000</ele>
                <time>2017-06-25T05:10:59Z</time>
            </trkpt>
            <trkpt lon="101.097714" lat="15.234932">
                <ele>57.820000</ele>
                <time>2017-06-25T05:11:14Z</time>
            </trkpt>
            <trkpt lon="101.097723" lat="15.234274">
                <ele>56.860000</ele>
                <time>2017-06-25T05:11:31Z</time>
            </trkpt>
            <trkpt lon="101.098140" lat="15.234115">
                <ele>57.820000</ele>
                <time>2017-06-25T05:11:42Z</time>
            </trkpt>
            <trkpt lon="101.098294" lat="15.234064">
                <ele>57.340000</ele>
                <time>2017-06-25T05:11:46Z</time>
            </trkpt>
            <trkpt lon="101.098320" lat="15.233961">
                <ele>57.820000</ele>
                <time>2017-06-25T05:11:50Z</time>
            </trkpt>
            <trkpt lon="101.098151" lat="15.233537">
                <ele>59.740000</ele>
                <time>2017-06-25T05:12:03Z</time>
            </trkpt>
            <trkpt lon="101.098050" lat="15.233234">
                <ele>62.140000</ele>
                <time>2017-06-25T05:12:14Z</time>
            </trkpt>
            <trkpt lon="101.098038" lat="15.233186">
                <ele>62.140000</ele>
                <time>2017-06-25T05:12:17Z</time>
            </trkpt>
            <trkpt lon="101.097872" lat="15.233153">
                <ele>61.180000</ele>
                <time>2017-06-25T05:12:25Z</time>
            </trkpt>
            <trkpt lon="101.097842" lat="15.233094">
                <ele>60.700000</ele>
                <time>2017-06-25T05:12:27Z</time>
            </trkpt>
            <trkpt lon="101.097776" lat="15.232479">
                <ele>61.660000</ele>
                <time>2017-06-25T05:12:44Z</time>
            </trkpt>
            <trkpt lon="101.097928" lat="15.232173">
                <ele>61.180000</ele>
                <time>2017-06-25T05:12:56Z</time>
            </trkpt>
            <trkpt lon="101.098663" lat="15.232197">
                <ele>60.220000</ele>
                <time>2017-06-25T05:13:13Z</time>
            </trkpt>
            <trkpt lon="101.099592" lat="15.232220">
                <ele>59.260000</ele>
                <time>2017-06-25T05:13:32Z</time>
            </trkpt>
            <trkpt lon="101.100482" lat="15.232259">
                <ele>58.780000</ele>
                <time>2017-06-25T05:13:50Z</time>
            </trkpt>
            <trkpt lon="101.101322" lat="15.232294">
                <ele>59.260000</ele>
                <time>2017-06-25T05:14:08Z</time>
            </trkpt>
            <trkpt lon="101.101996" lat="15.232323">
                <ele>61.180000</ele>
                <time>2017-06-25T05:14:24Z</time>
            </trkpt>
            <trkpt lon="101.102653" lat="15.232346">
                <ele>64.550000</ele>
                <time>2017-06-25T05:14:42Z</time>
            </trkpt>
            <trkpt lon="101.103226" lat="15.232360">
                <ele>68.870000</ele>
                <time>2017-06-25T05:15:00Z</time>
            </trkpt>
            <trkpt lon="101.103704" lat="15.232403">
                <ele>69.830000</ele>
                <time>2017-06-25T05:15:16Z</time>
            </trkpt>
            <trkpt lon="101.103728" lat="15.232441">
                <ele>69.830000</ele>
                <time>2017-06-25T05:15:18Z</time>
            </trkpt>
            <trkpt lon="101.103734" lat="15.232489">
                <ele>69.830000</ele>
                <time>2017-06-25T05:15:19Z</time>
            </trkpt>
            <trkpt lon="101.103734" lat="15.232523">
                <ele>69.830000</ele>
                <time>2017-06-25T05:15:20Z</time>
            </trkpt>
            <trkpt lon="101.103715" lat="15.233207">
                <ele>68.870000</ele>
                <time>2017-06-25T05:15:35Z</time>
            </trkpt>
            <trkpt lon="101.103663" lat="15.234072">
                <ele>66.950000</ele>
                <time>2017-06-25T05:15:52Z</time>
            </trkpt>
            <trkpt lon="101.103604" lat="15.234973">
                <ele>62.620000</ele>
                <time>2017-06-25T05:16:07Z</time>
            </trkpt>
            <trkpt lon="101.103536" lat="15.236002">
                <ele>61.660000</ele>
                <time>2017-06-25T05:16:23Z</time>
            </trkpt>
            <trkpt lon="101.103455" lat="15.237027">
                <ele>61.660000</ele>
                <time>2017-06-25T05:16:41Z</time>
            </trkpt>
            <trkpt lon="101.103388" lat="15.237708">
                <ele>61.660000</ele>
                <time>2017-06-25T05:16:54Z</time>
            </trkpt>
            <trkpt lon="101.103318" lat="15.238346">
                <ele>63.580000</ele>
                <time>2017-06-25T05:17:08Z</time>
            </trkpt>
            <trkpt lon="101.103276" lat="15.239054">
                <ele>65.030000</ele>
                <time>2017-06-25T05:17:25Z</time>
            </trkpt>
            <trkpt lon="101.103215" lat="15.239805">
                <ele>67.430000</ele>
                <time>2017-06-25T05:17:44Z</time>
            </trkpt>
            <trkpt lon="101.103143" lat="15.240731">
                <ele>66.950000</ele>
                <time>2017-06-25T05:18:05Z</time>
            </trkpt>
            <trkpt lon="101.103138" lat="15.240924">
                <ele>66.950000</ele>
                <time>2017-06-25T05:18:09Z</time>
            </trkpt>
            <trkpt lon="101.103147" lat="15.240969">
                <ele>66.950000</ele>
                <time>2017-06-25T05:18:10Z</time>
            </trkpt>
            <trkpt lon="101.103162" lat="15.241013">
                <ele>66.950000</ele>
                <time>2017-06-25T05:18:11Z</time>
            </trkpt>
            <trkpt lon="101.103192" lat="15.241058">
                <ele>66.950000</ele>
                <time>2017-06-25T05:18:12Z</time>
            </trkpt>
            <trkpt lon="101.103231" lat="15.241087">
                <ele>66.950000</ele>
                <time>2017-06-25T05:18:13Z</time>
            </trkpt>
            <trkpt lon="101.103292" lat="15.241102">
                <ele>66.950000</ele>
                <time>2017-06-25T05:18:15Z</time>
            </trkpt>
            <trkpt lon="101.103333" lat="15.241104">
                <ele>66.950000</ele>
                <time>2017-06-25T05:18:16Z</time>
            </trkpt>
            <trkpt lon="101.103365" lat="15.241105">
                <ele>66.950000</ele>
                <time>2017-06-25T05:18:17Z</time>
            </trkpt>
            <trkpt lon="101.103945" lat="15.241125">
                <ele>69.350000</ele>
                <time>2017-06-25T05:18:35Z</time>
            </trkpt>
            <trkpt lon="101.104703" lat="15.241173">
                <ele>69.830000</ele>
                <time>2017-06-25T05:18:55Z</time>
            </trkpt>
            <trkpt lon="101.105293" lat="15.241202">
                <ele>69.350000</ele>
                <time>2017-06-25T05:19:09Z</time>
            </trkpt>
            <trkpt lon="101.106081" lat="15.241220">
                <ele>67.430000</ele>
                <time>2017-06-25T05:19:24Z</time>
            </trkpt>
            <trkpt lon="101.107015" lat="15.241287">
                <ele>65.990000</ele>
                <time>2017-06-25T05:19:39Z</time>
            </trkpt>
            <trkpt lon="101.107691" lat="15.241310">
                <ele>65.510000</ele>
                <time>2017-06-25T05:19:52Z</time>
            </trkpt>
            <trkpt lon="101.108297" lat="15.241319">
                <ele>65.030000</ele>
                <time>2017-06-25T05:20:02Z</time>
            </trkpt>
            <trkpt lon="101.108441" lat="15.241325">
                <ele>65.990000</ele>
                <time>2017-06-25T05:20:05Z</time>
            </trkpt>
            <trkpt lon="101.109233" lat="15.241367">
                <ele>68.870000</ele>
                <time>2017-06-25T05:20:22Z</time>
            </trkpt>
            <trkpt lon="101.109589" lat="15.241397">
                <ele>68.870000</ele>
                <time>2017-06-25T05:20:29Z</time>
            </trkpt>
            <trkpt lon="101.109807" lat="15.241374">
                <ele>68.870000</ele>
                <time>2017-06-25T05:20:33Z</time>
            </trkpt>
            <trkpt lon="101.109858" lat="15.241360">
                <ele>68.870000</ele>
                <time>2017-06-25T05:20:34Z</time>
            </trkpt>
            <trkpt lon="101.109908" lat="15.241342">
                <ele>68.870000</ele>
                <time>2017-06-25T05:20:35Z</time>
            </trkpt>
            <trkpt lon="101.109956" lat="15.241321">
                <ele>68.870000</ele>
                <time>2017-06-25T05:20:36Z</time>
            </trkpt>
            <trkpt lon="101.110002" lat="15.241299">
                <ele>68.870000</ele>
                <time>2017-06-25T05:20:37Z</time>
            </trkpt>
            <trkpt lon="101.110092" lat="15.241262">
                <ele>69.350000</ele>
                <time>2017-06-25T05:20:39Z</time>
            </trkpt>
            <trkpt lon="101.110137" lat="15.241253">
                <ele>69.350000</ele>
                <time>2017-06-25T05:20:40Z</time>
            </trkpt>
            <trkpt lon="101.110180" lat="15.241250">
                <ele>69.350000</ele>
                <time>2017-06-25T05:20:41Z</time>
            </trkpt>
            <trkpt lon="101.110224" lat="15.241253">
                <ele>69.350000</ele>
                <time>2017-06-25T05:20:42Z</time>
            </trkpt>
            <trkpt lon="101.110266" lat="15.241260">
                <ele>69.350000</ele>
                <time>2017-06-25T05:20:43Z</time>
            </trkpt>
            <trkpt lon="101.110310" lat="15.241272">
                <ele>69.350000</ele>
                <time>2017-06-25T05:20:44Z</time>
            </trkpt>
            <trkpt lon="101.110352" lat="15.241284">
                <ele>69.350000</ele>
                <time>2017-06-25T05:20:45Z</time>
            </trkpt>
            <trkpt lon="101.111023" lat="15.241489">
                <ele>70.310000</ele>
                <time>2017-06-25T05:21:00Z</time>
            </trkpt>
            <trkpt lon="101.111556" lat="15.241531">
                <ele>71.270000</ele>
                <time>2017-06-25T05:21:15Z</time>
            </trkpt>
            <trkpt lon="101.111812" lat="15.241553">
                <ele>74.640000</ele>
                <time>2017-06-25T05:21:31Z</time>
            </trkpt>
            <trkpt lon="101.112036" lat="15.241579">
                <ele>78.000000</ele>
                <time>2017-06-25T05:21:46Z</time>
            </trkpt>
            <trkpt lon="101.112308" lat="15.241604">
                <ele>80.890000</ele>
                <time>2017-06-25T05:22:04Z</time>
            </trkpt>
            <trkpt lon="101.112621" lat="15.241615">
                <ele>81.850000</ele>
                <time>2017-06-25T05:22:19Z</time>
            </trkpt>
            <trkpt lon="101.113115" lat="15.241628">
                <ele>82.330000</ele>
                <time>2017-06-25T05:22:35Z</time>
            </trkpt>
            <trkpt lon="101.113244" lat="15.241629">
                <ele>81.850000</ele>
                <time>2017-06-25T05:22:38Z</time>
            </trkpt>
            <trkpt lon="101.114067" lat="15.241683">
                <ele>82.330000</ele>
                <time>2017-06-25T05:22:56Z</time>
            </trkpt>
            <trkpt lon="101.114830" lat="15.241730">
                <ele>84.250000</ele>
                <time>2017-06-25T05:23:14Z</time>
            </trkpt>
            <trkpt lon="101.115415" lat="15.241724">
                <ele>85.690000</ele>
                <time>2017-06-25T05:23:30Z</time>
            </trkpt>
            <trkpt lon="101.116170" lat="15.241755">
                <ele>87.620000</ele>
                <time>2017-06-25T05:23:50Z</time>
            </trkpt>
            <trkpt lon="101.116816" lat="15.241797">
                <ele>90.020000</ele>
                <time>2017-06-25T05:24:09Z</time>
            </trkpt>
            <trkpt lon="101.117256" lat="15.241813">
                <ele>91.460000</ele>
                <time>2017-06-25T05:24:26Z</time>
            </trkpt>
            <trkpt lon="101.117787" lat="15.241852">
                <ele>93.870000</ele>
                <time>2017-06-25T05:24:45Z</time>
            </trkpt>
            <trkpt lon="101.118165" lat="15.241877">
                <ele>96.270000</ele>
                <time>2017-06-25T05:25:01Z</time>
            </trkpt>
            <trkpt lon="101.118545" lat="15.241889">
                <ele>98.190000</ele>
                <time>2017-06-25T05:25:16Z</time>
            </trkpt>
            <trkpt lon="101.119115" lat="15.241910">
                <ele>99.630000</ele>
                <time>2017-06-25T05:25:35Z</time>
            </trkpt>
            <trkpt lon="101.119741" lat="15.241941">
                <ele>100.110000</ele>
                <time>2017-06-25T05:25:51Z</time>
            </trkpt>
            <trkpt lon="101.120452" lat="15.241977">
                <ele>101.080000</ele>
                <time>2017-06-25T05:26:09Z</time>
            </trkpt>
            <trkpt lon="101.121303" lat="15.242018">
                <ele>102.520000</ele>
                <time>2017-06-25T05:26:29Z</time>
            </trkpt>
            <trkpt lon="101.121553" lat="15.242028">
                <ele>102.040000</ele>
                <time>2017-06-25T05:26:34Z</time>
            </trkpt>
            <trkpt lon="101.122405" lat="15.242068">
                <ele>100.110000</ele>
                <time>2017-06-25T05:26:50Z</time>
            </trkpt>
            <trkpt lon="101.123597" lat="15.242114">
                <ele>96.270000</ele>
                <time>2017-06-25T05:27:09Z</time>
            </trkpt>
            <trkpt lon="101.124858" lat="15.242186">
                <ele>91.940000</ele>
                <time>2017-06-25T05:27:26Z</time>
            </trkpt>
            <trkpt lon="101.125807" lat="15.242246">
                <ele>95.310000</ele>
                <time>2017-06-25T05:27:43Z</time>
            </trkpt>
            <trkpt lon="101.125973" lat="15.242261">
                <ele>96.750000</ele>
                <time>2017-06-25T05:27:48Z</time>
            </trkpt>
            <trkpt lon="101.125987" lat="15.242272">
                <ele>96.750000</ele>
                <time>2017-06-25T05:27:49Z</time>
            </trkpt>
            <trkpt lon="101.125997" lat="15.242292">
                <ele>97.230000</ele>
                <time>2017-06-25T05:27:50Z</time>
            </trkpt>
            <trkpt lon="101.125998" lat="15.242307">
                <ele>97.230000</ele>
                <time>2017-06-25T05:27:51Z</time>
            </trkpt>
            <trkpt lon="101.125995" lat="15.242327">
                <ele>97.710000</ele>
                <time>2017-06-25T05:27:52Z</time>
            </trkpt>
            <trkpt lon="101.125993" lat="15.242348">
                <ele>97.710000</ele>
                <time>2017-06-25T05:27:53Z</time>
            </trkpt>
            <trkpt lon="101.125994" lat="15.242370">
                <ele>97.710000</ele>
                <time>2017-06-25T05:27:54Z</time>
            </trkpt>
            <trkpt lon="101.125963" lat="15.242823">
                <ele>99.630000</ele>
                <time>2017-06-25T05:28:10Z</time>
            </trkpt>
            <trkpt lon="101.125931" lat="15.243427">
                <ele>101.560000</ele>
                <time>2017-06-25T05:28:30Z</time>
            </trkpt>
            <trkpt lon="101.125886" lat="15.244100">
                <ele>104.440000</ele>
                <time>2017-06-25T05:28:51Z</time>
            </trkpt>
            <trkpt lon="101.125850" lat="15.244736">
                <ele>106.360000</ele>
                <time>2017-06-25T05:29:10Z</time>
            </trkpt>
            <trkpt lon="101.125809" lat="15.245417">
                <ele>106.840000</ele>
                <time>2017-06-25T05:29:27Z</time>
            </trkpt>
            <trkpt lon="101.125760" lat="15.246249">
                <ele>105.880000</ele>
                <time>2017-06-25T05:29:44Z</time>
            </trkpt>
            <trkpt lon="101.125703" lat="15.247242">
                <ele>103.000000</ele>
                <time>2017-06-25T05:30:00Z</time>
            </trkpt>
            <trkpt lon="101.125644" lat="15.248308">
                <ele>103.960000</ele>
                <time>2017-06-25T05:30:17Z</time>
            </trkpt>
            <trkpt lon="101.125631" lat="15.248558">
                <ele>104.440000</ele>
                <time>2017-06-25T05:30:22Z</time>
            </trkpt>
            <trkpt lon="101.125581" lat="15.249218">
                <ele>105.880000</ele>
                <time>2017-06-25T05:30:38Z</time>
            </trkpt>
            <trkpt lon="101.125539" lat="15.249980">
                <ele>108.290000</ele>
                <time>2017-06-25T05:30:58Z</time>
            </trkpt>
            <trkpt lon="101.125463" lat="15.250813">
                <ele>110.690000</ele>
                <time>2017-06-25T05:31:20Z</time>
            </trkpt>
            <trkpt lon="101.125418" lat="15.251476">
                <ele>111.650000</ele>
                <time>2017-06-25T05:31:37Z</time>
            </trkpt>
            <trkpt lon="101.125384" lat="15.252375">
                <ele>111.650000</ele>
                <time>2017-06-25T05:31:56Z</time>
            </trkpt>
            <trkpt lon="101.125330" lat="15.253421">
                <ele>112.130000</ele>
                <time>2017-06-25T05:32:17Z</time>
            </trkpt>
            <trkpt lon="101.125286" lat="15.254263">
                <ele>112.610000</ele>
                <time>2017-06-25T05:32:34Z</time>
            </trkpt>
            <trkpt lon="101.125214" lat="15.255308">
                <ele>113.570000</ele>
                <time>2017-06-25T05:32:55Z</time>
            </trkpt>
            <trkpt lon="101.125161" lat="15.256380">
                <ele>114.530000</ele>
                <time>2017-06-25T05:33:16Z</time>
            </trkpt>
            <trkpt lon="101.125115" lat="15.257147">
                <ele>116.940000</ele>
                <time>2017-06-25T05:33:34Z</time>
            </trkpt>
            <trkpt lon="101.125077" lat="15.257725">
                <ele>119.340000</ele>
                <time>2017-06-25T05:33:52Z</time>
            </trkpt>
            <trkpt lon="101.125037" lat="15.258440">
                <ele>121.740000</ele>
                <time>2017-06-25T05:34:14Z</time>
            </trkpt>
            <trkpt lon="101.124999" lat="15.259115">
                <ele>124.150000</ele>
                <time>2017-06-25T05:34:35Z</time>
            </trkpt>
            <trkpt lon="101.124970" lat="15.259643">
                <ele>124.630000</ele>
                <time>2017-06-25T05:34:50Z</time>
            </trkpt>
            <trkpt lon="101.124931" lat="15.260322">
                <ele>125.110000</ele>
                <time>2017-06-25T05:35:06Z</time>
            </trkpt>
            <trkpt lon="101.124842" lat="15.260675">
                <ele>124.150000</ele>
                <time>2017-06-25T05:35:15Z</time>
            </trkpt>
            <trkpt lon="101.124675" lat="15.260682">
                <ele>124.150000</ele>
                <time>2017-06-25T05:35:18Z</time>
            </trkpt>
            <trkpt lon="101.124598" lat="15.260660">
                <ele>123.670000</ele>
                <time>2017-06-25T05:35:20Z</time>
            </trkpt>
            <trkpt lon="101.124364" lat="15.260652">
                <ele>122.710000</ele>
                <time>2017-06-25T05:35:24Z</time>
            </trkpt>
            <trkpt lon="101.123355" lat="15.260593">
                <ele>116.460000</ele>
                <time>2017-06-25T05:35:37Z</time>
            </trkpt>
            <trkpt lon="101.122068" lat="15.260501">
                <ele>109.730000</ele>
                <time>2017-06-25T05:35:51Z</time>
            </trkpt>
            <trkpt lon="101.120432" lat="15.260387">
                <ele>102.520000</ele>
                <time>2017-06-25T05:36:10Z</time>
            </trkpt>
            <trkpt lon="101.119703" lat="15.260344">
                <ele>99.630000</ele>
                <time>2017-06-25T05:36:18Z</time>
            </trkpt>
            <trkpt lon="101.119184" lat="15.260219">
                <ele>98.670000</ele>
                <time>2017-06-25T05:36:25Z</time>
            </trkpt>
            <trkpt lon="101.118295" lat="15.260003">
                <ele>98.190000</ele>
                <time>2017-06-25T05:36:39Z</time>
            </trkpt>
            <trkpt lon="101.117452" lat="15.259927">
                <ele>99.630000</ele>
                <time>2017-06-25T05:36:55Z</time>
            </trkpt>
            <trkpt lon="101.117409" lat="15.259941">
                <ele>99.630000</ele>
                <time>2017-06-25T05:36:56Z</time>
            </trkpt>
            <trkpt lon="101.117371" lat="15.259962">
                <ele>99.630000</ele>
                <time>2017-06-25T05:36:57Z</time>
            </trkpt>
            <trkpt lon="101.117337" lat="15.259986">
                <ele>99.630000</ele>
                <time>2017-06-25T05:36:58Z</time>
            </trkpt>
            <trkpt lon="101.117311" lat="15.260009">
                <ele>100.110000</ele>
                <time>2017-06-25T05:36:59Z</time>
            </trkpt>
            <trkpt lon="101.117291" lat="15.260035">
                <ele>100.110000</ele>
                <time>2017-06-25T05:37:00Z</time>
            </trkpt>
            <trkpt lon="101.117277" lat="15.260061">
                <ele>100.600000</ele>
                <time>2017-06-25T05:37:01Z</time>
            </trkpt>
            <trkpt lon="101.117267" lat="15.260086">
                <ele>100.600000</ele>
                <time>2017-06-25T05:37:02Z</time>
            </trkpt>
            <trkpt lon="101.117257" lat="15.260110">
                <ele>101.080000</ele>
                <time>2017-06-25T05:37:03Z</time>
            </trkpt>
            <trkpt lon="101.117153" lat="15.260559">
                <ele>103.480000</ele>
                <time>2017-06-25T05:37:21Z</time>
            </trkpt>
            <trkpt lon="101.117034" lat="15.261238">
                <ele>103.000000</ele>
                <time>2017-06-25T05:37:37Z</time>
            </trkpt>
            <trkpt lon="101.117002" lat="15.261335">
                <ele>103.000000</ele>
                <time>2017-06-25T05:37:39Z</time>
            </trkpt>
            <trkpt lon="101.116771" lat="15.261932">
                <ele>104.440000</ele>
                <time>2017-06-25T05:37:54Z</time>
            </trkpt>
            <trkpt lon="101.116686" lat="15.262214">
                <ele>104.440000</ele>
                <time>2017-06-25T05:38:01Z</time>
            </trkpt>
            <trkpt lon="101.116895" lat="15.262620">
                <ele>104.440000</ele>
                <time>2017-06-25T05:38:11Z</time>
            </trkpt>
            <trkpt lon="101.116925" lat="15.262677">
                <ele>104.440000</ele>
                <time>2017-06-25T05:38:12Z</time>
            </trkpt>
            <trkpt lon="101.117137" lat="15.262756">
                <ele>103.960000</ele>
                <time>2017-06-25T05:38:20Z</time>
            </trkpt>
            <trkpt lon="101.117143" lat="15.262748">
                <ele>103.960000</ele>
                <time>2017-06-25T05:38:31Z</time>
            </trkpt>
            <trkpt lon="101.117146" lat="15.262775">
                <ele>108.290000</ele>
                <time>2017-06-25T05:39:08Z</time>
            </trkpt>
            <trkpt lon="101.117157" lat="15.262772">
                <ele>109.730000</ele>
                <time>2017-06-25T05:39:26Z</time>
            </trkpt>
            <trkpt lon="101.117165" lat="15.262768">
                <ele>107.810000</ele>
                <time>2017-06-25T05:39:45Z</time>
            </trkpt>
            <trkpt lon="101.117163" lat="15.262768">
                <ele>107.810000</ele>
                <time>2017-06-25T05:39:47Z</time>
            </trkpt>
        </trkseg>
    </trk>
</gpx>